
Distance (Route):
Temperature : 3.4°C
Humidity : 0%
Pressure : 0hPa| Receiver | Frames | First received | Last received |
|---|---|---|---|
| DB0UT-7 | 208 | 2026-08-31 11:39:06 | 2026-08-31 13:51:19 |
| DM0DOS-11 | 173 | 2026-08-31 12:11:05 | 2026-08-31 13:26:56 |
| DJ2DS-15 | 66 | 2026-08-31 12:47:27 | 2026-08-31 13:12:07 |
| DL1ZP-14 | 16 | 2026-08-31 12:36:34 | 2026-08-31 13:05:03 |
| DO1YAY-16 | 12 | 2026-08-31 12:59:02 | 2026-08-31 13:17:39 |
| Receiver | Date | Latitude | Longitude | Direction | Speed | Altitude | Climb | Temperature | Humidity | Pressure | Voltage | Killtimer | Uptime | BKT | XDATA |
|---|---|---|---|---|---|---|---|---|---|---|---|---|---|---|---|
| DB0UT-7 | 2026-08-31 13:51:19 | 48.73351 | 3.92206 | 93° | 60km/h | 2486m | -5.0m/s | 3.4°C | 0% | 0hPa | 4.7V | 00:00:00 | 00:00:00 | 00:00:00 | |
| DB0UT-7 | 2026-08-31 13:50:59 | 48.73368 | 3.91747 | 95° | 58km/h | 2585m | -5.0m/s | 3.0°C | 0% | 0hPa | 4.7V | 00:00:00 | 00:00:00 | 00:00:00 | |
| DB0UT-7 | 2026-08-31 13:49:58 | 48.73375 | 3.90427 | 88° | 57km/h | 2916m | -5.8m/s | 1.7°C | 0% | 0hPa | 4.7V | 00:00:00 | 00:00:00 | 00:00:00 | |
| DB0UT-7 | 2026-08-31 13:49:37 | 48.73351 | 3.89967 | 86° | 58km/h | 3045m | -6.1m/s | 0.7°C | 0% | 0hPa | 4.7V | 00:00:00 | 00:00:00 | 00:00:00 | |
| DB0UT-7 | 2026-08-31 13:48:24 | 48.73319 | 3.87220 | 94° | 60km/h | 3742m | -5.3m/s | -3.2°C | 0% | 0hPa | 4.7V | 00:00:00 | 00:00:00 | 00:00:00 | |
| DB0UT-7 | 2026-08-31 13:47:07 | 48.73359 | 3.86532 | 94° | 60km/h | 3906m | -5.4m/s | -3.8°C | 0% | 0hPa | 4.7V | 00:00:00 | 00:00:00 | 00:00:00 | |
| DB0UT-7 | 2026-08-31 13:46:37 | 48.73384 | 3.85842 | 95° | 68km/h | 4071m | -5.2m/s | -5.1°C | 0% | 0hPa | 4.7V | 00:00:00 | 00:00:00 | 00:00:00 | |
| DB0UT-7 | 2026-08-31 13:46:06 | 48.73450 | 3.85047 | 101° | 73km/h | 4237m | -5.1m/s | -6.0°C | 0% | 0hPa | 4.7V | 00:00:00 | 00:00:00 | 00:00:00 | |
| DB0UT-7 | 2026-08-31 13:45:36 | 48.73531 | 3.84216 | 96° | 75km/h | 4394m | -5.2m/s | -7.3°C | 0% | 0hPa | 4.7V | 00:00:00 | 00:00:00 | 00:00:00 | |
| DB0UT-7 | 2026-08-31 13:45:05 | 48.73586 | 3.83332 | 96° | 75km/h | 4563m | -5.5m/s | -8.1°C | 0% | 0hPa | 4.7V | 00:00:00 | 00:00:00 | 00:00:00 | |
| DB0UT-7 | 2026-08-31 13:44:34 | 48.73607 | 3.82448 | 92° | 73km/h | 4736m | -5.6m/s | -9.7°C | 0% | 0hPa | 4.7V | 00:00:00 | 00:00:00 | 00:00:00 | |
| DB0UT-7 | 2026-08-31 13:44:04 | 48.73624 | 3.81601 | 93° | 73km/h | 4906m | -5.5m/s | -11.3°C | 0% | 0hPa | 4.7V | 00:00:00 | 00:00:00 | 00:00:00 | |
| DB0UT-7 | 2026-08-31 13:43:34 | 48.73629 | 3.80769 | 91° | 69km/h | 5078m | -5.6m/s | -12.7°C | 0% | 0hPa | 4.7V | 00:00:00 | 00:00:00 | 00:00:00 | |
| DB0UT-7 | 2026-08-31 13:43:04 | 48.73663 | 3.79982 | 95° | 66km/h | 5255m | -6.7m/s | -13.9°C | 0% | 0hPa | 4.7V | 00:00:00 | 00:00:00 | 00:00:00 | |
| DB0UT-7 | 2026-08-31 13:42:34 | 48.73730 | 3.79234 | 101° | 66km/h | 5437m | -6.5m/s | -14.4°C | 0% | 0hPa | 4.7V | 00:00:00 | 00:00:00 | 00:00:00 | |
| DB0UT-7 | 2026-08-31 13:42:04 | 48.73814 | 3.78485 | 105° | 66km/h | 5616m | -5.7m/s | -15.9°C | 0% | 0hPa | 4.7V | 00:00:00 | 00:00:00 | 00:00:00 | |
| DB0UT-7 | 2026-08-31 13:41:34 | 48.73917 | 3.77749 | 99° | 66km/h | 5802m | -6.0m/s | -17.0°C | 0% | 0hPa | 4.7V | 00:00:00 | 00:00:00 | 00:00:00 | |
| DB0UT-7 | 2026-08-31 13:41:04 | 48.74007 | 3.77015 | 102° | 69km/h | 5988m | -6.3m/s | -18.6°C | 0% | 0hPa | 4.7V | 00:00:00 | 00:00:00 | 00:00:00 | |
| DB0UT-7 | 2026-08-31 13:40:34 | 48.74137 | 3.76247 | 107° | 78km/h | 6177m | -6.6m/s | -19.9°C | 0% | 0hPa | 4.7V | 00:00:00 | 00:00:00 | 00:00:00 | |
| DB0UT-7 | 2026-08-31 13:39:18 | 48.74568 | 3.74091 | 107° | 84km/h | 6671m | -6.7m/s | -23.6°C | 0% | 0hPa | 4.7V | 00:00:00 | 00:00:00 | 00:00:00 | |
| DB0UT-7 | 2026-08-31 13:38:48 | 48.74723 | 3.73161 | 104° | 95km/h | 6873m | -6.8m/s | -25.2°C | 0% | 0hPa | 4.7V | 00:00:00 | 00:00:00 | 00:00:00 | |
| DB0UT-7 | 2026-08-31 13:38:11 | 48.74956 | 3.71877 | 104° | 100km/h | 7130m | -7.3m/s | -26.3°C | 0% | 0hPa | 4.7V | 00:00:00 | 00:00:00 | 00:00:00 | |
| DB0UT-7 | 2026-08-31 13:37:41 | 48.75153 | 3.70749 | 103° | 102km/h | 7346m | -7.0m/s | -27.8°C | 0% | 0hPa | 4.7V | 00:00:00 | 00:00:00 | 00:00:00 | |
| DB0UT-7 | 2026-08-31 13:37:11 | 48.75348 | 3.69611 | 104° | 104km/h | 7564m | -7.6m/s | -29.2°C | 0% | 0hPa | 4.7V | 00:00:00 | 00:00:00 | 00:00:00 | |
| DB0UT-7 | 2026-08-31 13:36:41 | 48.75528 | 3.68448 | 107° | 110km/h | 7787m | -7.6m/s | -30.4°C | 0% | 0hPa | 4.7V | 00:00:00 | 00:00:00 | 00:00:00 | |
| DB0UT-7 | 2026-08-31 13:36:05 | 48.75828 | 3.67020 | 110° | 115km/h | 8056m | -7.9m/s | -32.5°C | 0% | 0hPa | 4.7V | 00:00:00 | 00:00:00 | 00:00:00 | |
| DB0UT-7 | 2026-08-31 13:35:35 | 48.76167 | 3.65806 | 116° | 119km/h | 8278m | -7.8m/s | -33.8°C | 0% | 0hPa | 4.7V | 00:00:00 | 00:00:00 | 00:00:00 | |
| DB0UT-7 | 2026-08-31 13:35:05 | 48.76604 | 3.64605 | 119° | 126km/h | 8503m | -7.9m/s | -35.1°C | 0% | 0hPa | 4.7V | 00:00:00 | 00:00:00 | 00:00:00 | |
| DB0UT-7 | 2026-08-31 13:34:34 | 48.77109 | 3.63301 | 122° | 139km/h | 8736m | -7.6m/s | -36.8°C | 0% | 0hPa | 4.7V | 00:00:00 | 00:00:00 | 00:00:00 | |
| DB0UT-7 | 2026-08-31 13:34:01 | 48.77709 | 3.61817 | 120° | 144km/h | 8990m | -8.4m/s | -38.9°C | 0% | 0hPa | 4.7V | 00:00:00 | 00:00:00 | 00:00:00 | |
| DB0UT-7 | 2026-08-31 13:33:31 | 48.78248 | 3.60371 | 122° | 146km/h | 9220m | -7.6m/s | -40.5°C | 0% | 0hPa | 4.7V | 00:00:00 | 00:00:00 | 00:00:00 | |
| DB0UT-7 | 2026-08-31 13:33:01 | 48.78831 | 3.58950 | 123° | 142km/h | 9453m | -8.3m/s | -42.3°C | 0% | 0hPa | 4.7V | 00:00:00 | 00:00:00 | 00:00:00 | |
| DB0UT-7 | 2026-08-31 13:32:31 | 48.79400 | 3.57572 | 121° | 141km/h | 9691m | -8.1m/s | -43.8°C | 0% | 0hPa | 4.7V | 00:00:00 | 00:00:00 | 00:00:00 | |
| DB0UT-7 | 2026-08-31 13:32:01 | 48.79927 | 3.56159 | 120° | 137km/h | 9927m | -7.8m/s | -45.4°C | 0% | 0hPa | 4.7V | 00:00:00 | 00:00:00 | 00:00:00 | |
| DB0UT-7 | 2026-08-31 13:30:17 | 48.81741 | 3.51459 | 119° | 130km/h | 10792m | -8.8m/s | -51.0°C | 0% | 0hPa | 4.8V | 00:00:00 | 00:00:00 | 00:00:00 | |
| DB0UT-7 | 2026-08-31 13:29:04 | 48.82506 | 3.48097 | 106° | 117km/h | 11440m | -8.8m/s | -51.5°C | 0% | 0hPa | 4.8V | 00:00:00 | 00:00:00 | 00:00:00 | |
| DB0UT-7 | 2026-08-31 13:28:34 | 48.82757 | 3.46801 | 104° | 108km/h | 11713m | -9.4m/s | -51.4°C | 0% | 0hPa | 4.8V | 00:00:00 | 00:00:00 | 00:00:00 | |
| DB0UT-7 | 2026-08-31 13:27:22 | 48.82984 | 3.43775 | 100° | 108km/h | 12410m | -10.2m/s | -50.2°C | 0% | 0hPa | 4.8V | 00:00:00 | 00:00:00 | 00:00:00 | |
| DM0DOS-11 | 2026-08-31 13:26:56 | 48.82999 | 3.42451 | 93° | 106km/h | 12728m | -10.4m/s | -50°C | 0% | 0hPa | 4.8V | 00:00:00 | 00:00:00 | 00:00:00 | |
| DB0UT-7 | 2026-08-31 13:26:53 | 48.82995 | 3.42531 | 94° | 91km/h | 12708m | -10.0m/s | -49.9°C | 0% | 0hPa | 4.8V | 00:00:00 | 00:00:00 | 00:00:00 | |
| DM0DOS-11 | 2026-08-31 13:26:34 | 48.83009 | 3.41730 | 91° | 106km/h | 12909m | -10.2m/s | -49.5°C | 0% | 0hPa | 4.8V | 00:00:00 | 00:00:00 | 00:00:00 | |
| DB0UT-7 | 2026-08-31 13:25:41 | 48.83000 | 3.39903 | 83° | 89km/h | 13431m | -10.2m/s | -49.7°C | 0% | 0hPa | 4.8V | 00:00:00 | 00:00:00 | 00:00:00 | |
| DB0UT-7 | 2026-08-31 13:25:11 | 48.82886 | 3.38884 | 78° | 86km/h | 13743m | -10.6m/s | -51.2°C | 0% | 0hPa | 4.8V | 00:00:00 | 00:00:00 | 00:00:00 | |
| DB0UT-7 | 2026-08-31 13:23:58 | 48.82711 | 3.36411 | 85° | 73km/h | 14561m | -11.2m/s | -51.9°C | 0% | 0hPa | 4.8V | 00:00:00 | 00:00:00 | 00:00:00 | |
| DB0UT-7 | 2026-08-31 13:23:28 | 48.82668 | 3.35581 | 84° | 64km/h | 14924m | -12.2m/s | -51.7°C | 0% | 0hPa | 4.9V | 00:00:00 | 00:00:00 | 00:00:00 | |
| DB0UT-7 | 2026-08-31 13:22:16 | 48.82456 | 3.33756 | 70° | 64km/h | 15791m | -13.0m/s | -50.9°C | 0% | 0hPa | 4.9V | 00:00:00 | 00:00:00 | 00:00:00 | |
| DB0UT-7 | 2026-08-31 13:20:38 | 48.81943 | 3.31949 | 60° | 51km/h | 17129m | -13.5m/s | -52.6°C | 0% | 0hPa | 4.9V | 00:00:00 | 00:00:00 | 00:00:00 | |
| DB0UT-7 | 2026-08-31 13:20:05 | 48.81802 | 3.31359 | 74° | 47km/h | 17563m | -14.5m/s | -51.3°C | 0% | 0hPa | 4.9V | 00:00:00 | 00:00:00 | 00:00:00 | |
| DB0UT-7 | 2026-08-31 13:18:55 | 48.81571 | 3.30619 | 53° | 38km/h | 18644m | -15.6m/s | -52.1°C | 0% | 0hPa | 4.9V | 00:00:00 | 00:00:00 | 00:00:00 | |
| DB0UT-7 | 2026-08-31 13:18:23 | 48.81434 | 3.30212 | 79° | 22km/h | 19133m | -15.2m/s | -52.0°C | 0% | 0hPa | 4.9V | 00:00:00 | 00:00:00 | 00:00:00 | |
| DO1YAY-16 | 2026-08-31 13:17:39 | 48.81370 | 3.29858 | 75° | 26km/h | 19866m | -16.4m/s | -53.4°C | 0.2% | -1.0hPa | 4.9V | 00:00:00 | 00:00:00 | 00:00:00 | |
| DB0UT-7 | 2026-08-31 13:17:08 | 48.81347 | 3.29657 | 154° | 9km/h | 20389m | -18.4m/s | -52.0°C | 0% | 0hPa | 4.9V | 00:00:00 | 00:00:00 | 00:00:00 | |
| DB0UT-7 | 2026-08-31 13:16:38 | 48.81322 | 3.29603 | 123° | 5km/h | 20931m | -18.5m/s | -51.6°C | 0% | 0hPa | 4.9V | 00:00:00 | 00:00:00 | 00:00:00 | |
| DO1YAY-16 | 2026-08-31 13:16:37 | 48.81308 | 3.29576 | 276° | 0km/h | 21206m | -19.0m/s | -52.3°C | 0.0% | -1.0hPa | 4.9V | 00:00:00 | 00:00:00 | 00:00:00 | |
| DO1YAY-16 | 2026-08-31 13:16:06 | 48.81227 | 3.29628 | 353° | 16km/h | 21687m | -19.9m/s | -53.3°C | 0.3% | -1.0hPa | 4.9V | 00:00:00 | 00:00:00 | 00:00:00 | |
| DB0UT-7 | 2026-08-31 13:15:28 | 48.81122 | 3.29599 | 47° | 16km/h | 22316m | -23.5m/s | -51.3°C | 0% | 0hPa | 4.9V | 00:00:00 | 00:00:00 | 00:00:00 | |
| DB0UT-7 | 2026-08-31 13:14:55 | 48.81000 | 3.29635 | 328° | 20km/h | 23062m | -23.7m/s | -50.2°C | 0% | 0hPa | 4.9V | 00:00:00 | 00:00:00 | 00:00:00 | |
| DO1YAY-16 | 2026-08-31 13:14:33 | 48.80977 | 3.29644 | 206° | 4km/h | 23631m | -25.4m/s | -51.0°C | 0.4% | -1.0hPa | 4.9V | 00:00:00 | 00:00:00 | 00:00:00 | |
| DB0UT-7 | 2026-08-31 13:13:50 | 48.80927 | 3.29601 | 3° | 15km/h | 24638m | -24.0m/s | -50.4°C | 0% | 0hPa | 4.9V | 00:00:00 | 00:00:00 | 00:00:00 | |
| DB0UT-7 | 2026-08-31 13:13:15 | 48.80832 | 3.29653 | 201° | 20km/h | 25589m | -27.3m/s | -49.7°C | 0% | 0hPa | 4.9V | 00:00:00 | 00:00:00 | 00:00:00 | |
| DO1YAY-16 | 2026-08-31 13:13:00 | 48.80824 | 3.29660 | 221° | 15km/h | 26397m | -28.5m/s | -49.4°C | 1.3% | -1.0hPa | 4.9V | 00:00:00 | 00:00:00 | 00:00:00 | |
| DO1YAY-16 | 2026-08-31 13:12:29 | 48.80753 | 3.29747 | 324° | 55km/h | 27500m | -29.8m/s | -47.6°C | 1.6% | -1.0hPa | 4.9V | 00:00:00 | 00:00:00 | 00:00:00 | |
| DJ2DS-15 | 2026-08-31 13:12:07 | 48.80734 | 3.29777 | 303° | 51km/h | 27561m | -31.9m/s | -47.6°C | 1.6% | -1.0hPa | 4.9V | 00:00:00 | 00:00:00 | 00:00:00 | |
| DB0UT-7 | 2026-08-31 13:11:53 | 48.80702 | 3.29787 | 298° | 31km/h | 27941m | -27.6m/s | -46.6°C | 0% | 0hPa | 4.9V | 00:00:00 | 00:00:00 | 00:00:00 | |
| DJ2DS-15 | 2026-08-31 13:11:30 | 48.80602 | 3.29892 | 263° | 18km/h | 28650m | -30.1m/s | -45.9°C | 1.9% | -1.0hPa | 4.9V | 00:00:00 | 00:00:00 | 00:00:00 | |
| DO1YAY-16 | 2026-08-31 13:11:27 | 48.80525 | 3.29774 | 359° | 31km/h | 29327m | -32.3m/s | -45.0°C | 2.1% | -1.0hPa | 4.9V | 00:00:00 | 00:00:00 | 00:00:00 | |
| DB0UT-7 | 2026-08-31 13:10:31 | 48.80417 | 3.29596 | 28° | 22km/h | 30520m | -37.5m/s | -44.7°C | 0% | 0hPa | 4.9V | 00:00:00 | 00:00:00 | 00:00:00 | |
| DO1YAY-16 | 2026-08-31 13:10:25 | 48.80386 | 3.29523 | 81° | 18km/h | 30802m | -37.1m/s | -44.3°C | 3.5% | -1.0hPa | 4.9V | 00:00:00 | 00:00:00 | 00:00:00 | |
| DJ2DS-15 | 2026-08-31 13:10:03 | 48.80374 | 3.29357 | 72° | 13km/h | 31542m | -38.5m/s | -41.0°C | 0% | 0hPa | 4.9V | 00:00:00 | 00:00:00 | 00:00:00 | |
| DB0UT-7 | 2026-08-31 13:09:58 | 48.80384 | 3.29341 | 122° | 15km/h | 31732m | -40.9m/s | -40.9°C | 0% | 0hPa | 4.9V | 00:00:00 | 00:00:00 | 00:00:00 | |
| DJ2DS-15 | 2026-08-31 13:09:34 | 48.80328 | 3.29282 | 10° | 13km/h | 32710m | -43.5m/s | -37.2°C | 0% | 0hPa | 4.9V | 00:00:00 | 00:00:00 | 00:00:00 | |
| DJ2DS-15 | 2026-08-31 13:09:09 | 48.80343 | 3.29248 | 79° | 15km/h | 33963m | -38.4m/s | -31.8°C | 0% | 0hPa | 4.9V | 00:00:00 | 00:00:00 | 00:00:00 | |
| DJ2DS-15 | 2026-08-31 13:09:06 | 48.80333 | 3.29242 | 18° | 11km/h | 34051m | -10.1m/s | -31.0°C | 3.6% | -1.0hPa | 5V | 00:00:00 | 00:00:00 | 00:00:00 | |
| DM0DOS-11 | 2026-08-31 13:09:03 | 48.80342 | 3.29233 | 316° | 11km/h | 34011m | 7m/s | -31.5°C | 0% | 0hPa | 5V | 00:00:00 | 00:00:00 | 00:00:00 | |
| DJ2DS-15 | 2026-08-31 13:08:46 | 48.80326 | 3.29260 | 317° | 24km/h | 33937m | 4.6m/s | -32.1°C | 0% | 0hPa | 5V | 00:00:00 | 00:00:00 | 00:00:00 | |
| DM0DOS-11 | 2026-08-31 13:08:45 | 48.80336 | 3.29288 | 163° | 9km/h | 33901m | 4.7m/s | -32.1°C | 0% | 0hPa | 5V | 00:00:00 | 00:00:00 | 00:00:00 | |
| DB0UT-7 | 2026-08-31 13:08:38 | 48.80333 | 3.29288 | 349° | 26km/h | 33886m | 8.1m/s | -32.2°C | 0% | 0hPa | 5V | 00:00:00 | 00:00:00 | 00:00:00 | |
| DM0DOS-11 | 2026-08-31 13:08:32 | 48.80347 | 3.29330 | 324° | 0km/h | 33834m | 7.3m/s | -32.2°C | 0% | 0hPa | 5V | 00:00:00 | 00:00:00 | 00:00:00 | |
| DJ2DS-15 | 2026-08-31 13:08:26 | 48.80333 | 3.29337 | 331° | 26km/h | 33817m | 3.0m/s | -32.1°C | 0% | 0hPa | 5V | 00:00:00 | 00:00:00 | 00:00:00 | |
| DM0DOS-11 | 2026-08-31 13:08:20 | 48.80351 | 3.29383 | 344° | 35km/h | 33757m | 3.1m/s | -32.2°C | 0% | 0hPa | 5V | 00:00:00 | 00:00:00 | 00:00:00 | |
| DB0UT-7 | 2026-08-31 13:08:08 | 48.80381 | 3.29414 | 271° | 20km/h | 33710m | 6.8m/s | -31.8°C | 0% | 0hPa | 4.9V | 00:00:00 | 00:00:00 | 00:00:00 | |
| DJ2DS-15 | 2026-08-31 13:08:06 | 48.80373 | 3.29425 | 344° | 22km/h | 33697m | 5.1m/s | -31.9°C | 0% | 0hPa | 4.9V | 00:00:00 | 00:00:00 | 00:00:00 | |
| DM0DOS-11 | 2026-08-31 13:08:05 | 48.80366 | 3.29426 | 180° | 13km/h | 33680m | 7.7m/s | -31.8°C | 0% | 0hPa | 5V | 00:00:00 | 00:00:00 | 00:00:00 | |
| DM0DOS-11 | 2026-08-31 13:07:55 | 48.80376 | 3.29456 | 175° | 24km/h | 33615m | 7.1m/s | -32°C | 0% | 0hPa | 5V | 00:00:00 | 00:00:00 | 00:00:00 | |
| DJ2DS-15 | 2026-08-31 13:07:46 | 48.80396 | 3.29476 | 346° | 16km/h | 33582m | 5.9m/s | -32.0°C | 0% | 0hPa | 5V | 00:00:00 | 00:00:00 | 00:00:00 | |
| DM0DOS-11 | 2026-08-31 13:07:41 | 48.80402 | 3.29484 | 248° | 4km/h | 33543m | 5.8m/s | -32.2°C | 0% | 0hPa | 5V | 00:00:00 | 00:00:00 | 00:00:00 | |
| DB0UT-7 | 2026-08-31 13:07:38 | 48.80400 | 3.29485 | 360° | 15km/h | 33536m | 7.5m/s | -32.2°C | 0% | 0hPa | 5V | 00:00:00 | 00:00:00 | 00:00:00 | |
| DM0DOS-11 | 2026-08-31 13:07:30 | 48.80385 | 3.29465 | 25° | 29km/h | 33468m | 3.5m/s | -32.7°C | 0% | 0hPa | 5V | 00:00:00 | 00:00:00 | 00:00:00 | |
| DJ2DS-15 | 2026-08-31 13:07:26 | 48.80385 | 3.29465 | 26° | 20km/h | 33469m | 3.5m/s | -32.6°C | 0% | 0hPa | 5V | 00:00:00 | 00:00:00 | 00:00:00 | |
| DM0DOS-11 | 2026-08-31 13:07:20 | 48.80372 | 3.29438 | 23° | 29km/h | 33413m | 3.9m/s | -33.3°C | 0% | 0hPa | 5V | 00:00:00 | 00:00:00 | 00:00:00 | |
| DM0DOS-11 | 2026-08-31 13:07:09 | 48.80360 | 3.29400 | 139° | 9km/h | 33343m | 6.5m/s | -33.7°C | 0% | 0hPa | 5V | 00:00:00 | 00:00:00 | 00:00:00 | |
| DJ2DS-15 | 2026-08-31 13:07:06 | 48.80362 | 3.29405 | 27° | 15km/h | 33356m | 4.8m/s | -33.5°C | 0% | 0hPa | 4.9V | 00:00:00 | 00:00:00 | 00:00:00 | |
| DM0DOS-11 | 2026-08-31 13:06:59 | 48.80351 | 3.29377 | 153° | 16km/h | 33287m | 5m/s | -33.9°C | 0% | 0hPa | 5V | 00:00:00 | 00:00:00 | 00:00:00 | |
| DB0UT-7 | 2026-08-31 13:06:50 | 48.80352 | 3.29364 | 22° | 18km/h | 33266m | 7.1m/s | -34.2°C | 0% | 0hPa | 5V | 00:00:00 | 00:00:00 | 00:00:00 | |
| DM0DOS-11 | 2026-08-31 13:06:47 | 48.80341 | 3.29368 | 188° | 9km/h | 33230m | 3.6m/s | -34.4°C | 0% | 0hPa | 5V | 00:00:00 | 00:00:00 | 00:00:00 | |
| DJ2DS-15 | 2026-08-31 13:06:46 | 48.80332 | 3.29362 | 269° | 16km/h | 33245m | 7.4m/s | -34.2°C | 0% | 0hPa | 5V | 00:00:00 | 00:00:00 | 00:00:00 | |
| DM0DOS-11 | 2026-08-31 13:06:29 | 48.80304 | 3.29349 | 307° | 4km/h | 33140m | 7.2m/s | -35.1°C | 0% | 0hPa | 5V | 00:00:00 | 00:00:00 | 00:00:00 | |
| DJ2DS-15 | 2026-08-31 13:06:26 | 48.80305 | 3.29351 | 208° | 16km/h | 33134m | 7.2m/s | -34.8°C | 0% | 0hPa | 4.9V | 00:00:00 | 00:00:00 | 00:00:00 | |
| DB0UT-7 | 2026-08-31 13:06:20 | 48.80304 | 3.29349 | 16° | 22km/h | 33100m | 4.9m/s | -34.8°C | 0% | 0hPa | 4.9V | 00:00:00 | 00:00:00 | 00:00:00 | |
| DM0DOS-11 | 2026-08-31 13:06:14 | 48.80291 | 3.29341 | 18° | 29km/h | 33047m | 6.2m/s | -35.2°C | 0% | 0hPa | 5V | 00:00:00 | 00:00:00 | 00:00:00 | |
| DJ2DS-15 | 2026-08-31 13:06:06 | 48.80276 | 3.29331 | 174° | 16km/h | 33017m | 5.9m/s | -35.6°C | 0% | 0hPa | 4.9V | 00:00:00 | 00:00:00 | 00:00:00 | |
| DM0DOS-11 | 2026-08-31 13:06:03 | 48.80270 | 3.29314 | 24° | 29km/h | 32987m | 5.3m/s | -36°C | 0% | 0hPa | 5V | 00:00:00 | 00:00:00 | 00:00:00 | |
| DM0DOS-11 | 2026-08-31 13:05:53 | 48.80244 | 3.29273 | 25° | 29km/h | 32928m | 4.5m/s | -35.6°C | 0% | 0hPa | 5V | 00:00:00 | 00:00:00 | 00:00:00 | |
| DJ2DS-15 | 2026-08-31 13:05:45 | 48.80240 | 3.29273 | 59° | 20km/h | 32893m | 6.9m/s | -36.1°C | 0% | 0hPa | 5V | 00:00:00 | 00:00:00 | 00:00:00 | |
| DM0DOS-11 | 2026-08-31 13:05:43 | 48.80213 | 3.29244 | 24° | 33km/h | 32866m | 5.1m/s | -36.3°C | 0% | 0hPa | 5V | 00:00:00 | 00:00:00 | 00:00:00 | |
| DM0DOS-11 | 2026-08-31 13:05:33 | 48.80165 | 3.29215 | 10° | 18km/h | 32793m | 7.4m/s | -36.7°C | 0% | 0hPa | 5V | 00:00:00 | 00:00:00 | 00:00:00 | |
| DB0UT-7 | 2026-08-31 13:05:25 | 48.80156 | 3.29217 | 37° | 18km/h | 32761m | 7.5m/s | -36.6°C | 0% | 0hPa | 5V | 00:00:00 | 00:00:00 | 00:00:00 | |
| DJ2DS-15 | 2026-08-31 13:05:24 | 48.80151 | 3.29210 | 38° | 20km/h | 32754m | 6.6m/s | -36.4°C | 0% | 0hPa | 5V | 00:00:00 | 00:00:00 | 00:00:00 | |
| DM0DOS-11 | 2026-08-31 13:05:18 | 48.80129 | 3.29207 | 341° | 9km/h | 32709m | 6.7m/s | -36.9°C | 0% | 0hPa | 5V | 00:00:00 | 00:00:00 | 00:00:00 | |
| DM0DOS-11 | 2026-08-31 13:05:03 | 48.80070 | 3.29180 | 0° | 0km/h | 32600m | 6.7m/s | -37.4°C | 0% | 0hPa | 5V | 00:00:00 | 00:00:00 | 00:00:00 | |
| DL1ZP-14 | 2026-08-31 13:05:03 | 48.80070 | 3.29181 | 38° | 5km/h | 32607m | 7.8m/s | -37.3°C | 3.5% | -1.0hPa | 5.0V | 00:00:00 | 00:00:00 | 00:00:00 | |
| DB0UT-7 | 2026-08-31 13:04:55 | 48.80051 | 3.29156 | 44° | 18km/h | 32562m | 4.9m/s | -37.7°C | 0% | 0hPa | 5V | 00:00:00 | 00:00:00 | 00:00:00 | |
| DM0DOS-11 | 2026-08-31 13:04:50 | 48.80040 | 3.29153 | 31° | 11km/h | 32519m | 7.7m/s | -38°C | 0% | 0hPa | 5V | 00:00:00 | 00:00:00 | 00:00:00 | |
| DJ2DS-15 | 2026-08-31 13:04:43 | 48.80012 | 3.29127 | 289° | 16km/h | 32477m | 7.7m/s | -37.8°C | 0% | 0hPa | 5V | 00:00:00 | 00:00:00 | 00:00:00 | |
| DM0DOS-11 | 2026-08-31 13:04:38 | 48.80002 | 3.29103 | 46° | 22km/h | 32433m | 5.3m/s | -37.7°C | 0% | 0hPa | 5V | 00:00:00 | 00:00:00 | 00:00:00 | |
| DM0DOS-11 | 2026-08-31 13:04:26 | 48.79994 | 3.29084 | 252° | 5km/h | 32350m | 6.5m/s | -38.1°C | 0% | 0hPa | 5V | 00:00:00 | 00:00:00 | 00:00:00 | |
| DB0UT-7 | 2026-08-31 13:04:25 | 48.79994 | 3.29083 | 60° | 16km/h | 32357m | 7.1m/s | -38.3°C | 0% | 0hPa | 5.0V | 00:00:00 | 00:00:00 | 00:00:00 | |
| DJ2DS-15 | 2026-08-31 13:04:23 | 48.79995 | 3.29086 | 241° | 15km/h | 32344m | 5.7m/s | -38.3°C | 0% | 0hPa | 5V | 00:00:00 | 00:00:00 | 00:00:00 | |
| DJ2DS-15 | 2026-08-31 13:04:18 | 48.79983 | 3.29056 | 299° | 5km/h | 32288m | 6.3m/s | -38.3°C | 3.5% | -1.0hPa | 5V | 00:00:00 | 00:00:00 | 00:00:00 | |
| DO1YAY-16 | 2026-08-31 13:04:13 | 48.79977 | 3.29052 | 46° | 22km/h | 32269m | 8.6m/s | -38.4°C | 3.5% | -1.0hPa | 5V | 00:00:00 | 00:00:00 | 00:00:00 | |
| DM0DOS-11 | 2026-08-31 13:04:04 | 48.79934 | 3.28983 | 46° | 29km/h | 32182m | 4.9m/s | -38.9°C | 0% | 0hPa | 5V | 00:00:00 | 00:00:00 | 00:00:00 | |
| DL1ZP-14 | 2026-08-31 13:04:00 | 48.79940 | 3.28994 | 52° | 38km/h | 32187m | 4.5m/s | -38.9°C | 3.6% | -1.0hPa | 5.0V | 00:00:00 | 00:00:00 | 00:00:00 | |
| DB0UT-7 | 2026-08-31 13:03:54 | 48.79923 | 3.28996 | 300° | 18km/h | 32148m | 5.2m/s | -39.0°C | 0% | 0hPa | 5V | 00:00:00 | 00:00:00 | 00:00:00 | |
| DM0DOS-11 | 2026-08-31 13:03:48 | 48.79902 | 3.28947 | 308° | 15km/h | 32098m | 9.3m/s | -38.8°C | 0% | 0hPa | 5V | 00:00:00 | 00:00:00 | 00:00:00 | |
| DJ2DS-15 | 2026-08-31 13:03:41 | 48.79886 | 3.28958 | 49° | 16km/h | 32057m | 7.0m/s | -38.9°C | 0% | 0hPa | 5V | 00:00:00 | 00:00:00 | 00:00:00 | |
| DM0DOS-11 | 2026-08-31 13:03:37 | 48.79852 | 3.28930 | 355° | 24km/h | 31990m | 6.8m/s | -39°C | 0% | 0hPa | 5V | 00:00:00 | 00:00:00 | 00:00:00 | |
| DM0DOS-11 | 2026-08-31 13:03:26 | 48.79832 | 3.28925 | 299° | 18km/h | 31924m | 8.5m/s | -39.2°C | 0% | 0hPa | 5V | 00:00:00 | 00:00:00 | 00:00:00 | |
| DB0UT-7 | 2026-08-31 13:03:25 | 48.79834 | 3.28927 | 98° | 16km/h | 31945m | 4.5m/s | -39.2°C | 0% | 0hPa | 5V | 00:00:00 | 00:00:00 | 00:00:00 | |
| DJ2DS-15 | 2026-08-31 13:03:21 | 48.79832 | 3.28925 | 300° | 20km/h | 31924m | 8.4m/s | -39.2°C | 0% | 0hPa | 5V | 00:00:00 | 00:00:00 | 00:00:00 | |
| DM0DOS-11 | 2026-08-31 13:03:08 | 48.79803 | 3.28942 | 51° | 20km/h | 31833m | 7.7m/s | -39.2°C | 0% | 0hPa | 5V | 00:00:00 | 00:00:00 | 00:00:00 | |
| DJ2DS-15 | 2026-08-31 13:03:00 | 48.79808 | 3.28923 | 258° | 9km/h | 31790m | 5.9m/s | -39.1°C | 0% | 0hPa | 5.0V | 00:00:00 | 00:00:00 | 00:00:00 | |
| DM0DOS-11 | 2026-08-31 13:02:58 | 48.79812 | 3.28918 | 111° | 15km/h | 31763m | 5.8m/s | -39.4°C | 0% | 0hPa | 5V | 00:00:00 | 00:00:00 | 00:00:00 | |
| DB0UT-7 | 2026-08-31 13:02:54 | 48.79815 | 3.28912 | 163° | 13km/h | 31750m | 7.4m/s | -39.3°C | 0% | 0hPa | 5.0V | 00:00:00 | 00:00:00 | 00:00:00 | |
| DM0DOS-11 | 2026-08-31 13:02:48 | 48.79820 | 3.28893 | 222° | 9km/h | 31691m | 7.6m/s | -39.1°C | 0% | 0hPa | 5V | 00:00:00 | 00:00:00 | 00:00:00 | |
| DJ2DS-15 | 2026-08-31 13:02:40 | 48.79827 | 3.28891 | 92° | 16km/h | 31662m | 6.3m/s | -39.1°C | 0% | 0hPa | 5V | 00:00:00 | 00:00:00 | 00:00:00 | |
| DM0DOS-11 | 2026-08-31 13:02:38 | 48.79828 | 3.28869 | 241° | 13km/h | 31624m | 5.4m/s | -39.1°C | 0% | 0hPa | 5V | 00:00:00 | 00:00:00 | 00:00:00 | |
| DB0UT-7 | 2026-08-31 13:02:24 | 48.79835 | 3.28820 | 105° | 24km/h | 31564m | 6.8m/s | -39.0°C | 0% | 0hPa | 5V | 00:00:00 | 00:00:00 | 00:00:00 | |
| DM0DOS-11 | 2026-08-31 13:02:21 | 48.79839 | 3.28773 | 118° | 9km/h | 31524m | 5.4m/s | -38.8°C | 0% | 0hPa | 5V | 00:00:00 | 00:00:00 | 00:00:00 | |
| DJ2DS-15 | 2026-08-31 13:02:21 | 48.79837 | 3.28783 | 99° | 24km/h | 31537m | 7.0m/s | -39.2°C | 0% | 0hPa | 5V | 00:00:00 | 00:00:00 | 00:00:00 | |
| DM0DOS-11 | 2026-08-31 13:02:09 | 48.79844 | 3.28682 | 82° | 47km/h | 31442m | 7.1m/s | -39.1°C | 0% | 0hPa | 5V | 00:00:00 | 00:00:00 | 00:00:00 | |
| DJ2DS-15 | 2026-08-31 13:02:00 | 48.79843 | 3.28626 | 165° | 20km/h | 31412m | 5.7m/s | -39.3°C | 0% | 0hPa | 5.0V | 00:00:00 | 00:00:00 | 00:00:00 | |
| DB0UT-7 | 2026-08-31 13:01:52 | 48.79835 | 3.28559 | 104° | 20km/h | 31361m | 6.2m/s | -39.1°C | 0% | 0hPa | 5V | 00:00:00 | 00:00:00 | 00:00:00 | |
| DM0DOS-11 | 2026-08-31 13:01:43 | 48.79833 | 3.28452 | 73° | 37km/h | 31278m | 6m/s | -39.7°C | 0% | 0hPa | 5V | 00:00:00 | 00:00:00 | 00:00:00 | |
| DJ2DS-15 | 2026-08-31 13:01:40 | 48.79835 | 3.28467 | 82° | 20km/h | 31285m | 7.0m/s | -39.7°C | 0% | 0hPa | 5V | 00:00:00 | 00:00:00 | 00:00:00 | |
| DM0DOS-11 | 2026-08-31 13:01:23 | 48.79797 | 3.28351 | 62° | 20km/h | 31173m | 6.1m/s | -40.2°C | 0% | 0hPa | 5V | 00:00:00 | 00:00:00 | 00:00:00 | |
| DB0UT-7 | 2026-08-31 13:01:22 | 48.79797 | 3.28351 | 63° | 18km/h | 31173m | 6.0m/s | -40.2°C | 0% | 0hPa | 5.0V | 00:00:00 | 00:00:00 | 00:00:00 | |
| DJ2DS-15 | 2026-08-31 13:01:20 | 48.79796 | 3.28338 | 115° | 20km/h | 31158m | 6.7m/s | -40.3°C | 0% | 0hPa | 5V | 00:00:00 | 00:00:00 | 00:00:00 | |
| DM0DOS-11 | 2026-08-31 13:01:18 | 48.79771 | 3.28284 | 18° | 13km/h | 31109m | 6.5m/s | -40.8°C | 0% | 0hPa | 5V | 00:00:00 | 00:00:00 | 00:00:00 | |
| DO1YAY-16 | 2026-08-31 13:01:06 | 48.79760 | 3.28232 | 47° | 22km/h | 31068m | 6.7m/s | -40.8°C | 3.1% | -1.0hPa | 5.0V | 00:00:00 | 00:00:00 | 00:00:00 | |
| DJ2DS-15 | 2026-08-31 13:00:59 | 48.79739 | 3.28218 | 57° | 20km/h | 31032m | 7.1m/s | -41.2°C | 0% | 0hPa | 5.0V | 00:00:00 | 00:00:00 | 00:00:00 | |
| DM0DOS-11 | 2026-08-31 13:00:57 | 48.79733 | 3.28176 | 105° | 13km/h | 31006m | 7m/s | -41.2°C | 0% | 0hPa | 5V | 00:00:00 | 00:00:00 | 00:00:00 | |
| DB0UT-7 | 2026-08-31 13:00:52 | 48.79732 | 3.28173 | 28° | 16km/h | 30990m | 5.7m/s | -41.3°C | 0% | 0hPa | 5V | 00:00:00 | 00:00:00 | 00:00:00 | |
| DM0DOS-11 | 2026-08-31 13:00:47 | 48.79721 | 3.28126 | 35° | 0km/h | 30942m | 3.4m/s | -41.8°C | 0% | 0hPa | 5V | 00:00:00 | 00:00:00 | 00:00:00 | |
| DJ2DS-15 | 2026-08-31 13:00:38 | 48.79694 | 3.28077 | 69° | 26km/h | 30912m | 5.6m/s | -41.9°C | 0% | 0hPa | 5V | 00:00:00 | 00:00:00 | 00:00:00 | |
| DM0DOS-11 | 2026-08-31 13:00:37 | 48.79688 | 3.28061 | 37° | 24km/h | 30872m | 6.2m/s | -42.1°C | 0% | 0hPa | 5V | 00:00:00 | 00:00:00 | 00:00:00 | |
| DM0DOS-11 | 2026-08-31 13:00:22 | 48.79648 | 3.27944 | 65° | 29km/h | 30808m | 5.8m/s | -42.6°C | 0% | 0hPa | 5V | 00:00:00 | 00:00:00 | 00:00:00 | |
| DB0UT-7 | 2026-08-31 13:00:20 | 48.79645 | 3.27934 | 77° | 26km/h | 30801m | 7.6m/s | -42.0°C | 0% | 0hPa | 5V | 00:00:00 | 00:00:00 | 00:00:00 | |
| DJ2DS-15 | 2026-08-31 13:00:18 | 48.79645 | 3.27918 | 89° | 26km/h | 30789m | 5.0m/s | -42.1°C | 0% | 0hPa | 5V | 00:00:00 | 00:00:00 | 00:00:00 | |
| DM0DOS-11 | 2026-08-31 13:00:11 | 48.79620 | 3.27806 | 53° | 38km/h | 30713m | 5.6m/s | -43°C | 0% | 0hPa | 5V | 00:00:00 | 00:00:00 | 00:00:00 | |
| DO1YAY-16 | 2026-08-31 13:00:04 | 48.79603 | 3.27777 | 48° | 18km/h | 30695m | 6.7m/s | -43.1°C | 3.5% | -1.0hPa | 5V | 00:00:00 | 00:00:00 | 00:00:00 | |
| DM0DOS-11 | 2026-08-31 12:59:59 | 48.79580 | 3.27699 | 76° | 22km/h | 30640m | 6.3m/s | -42.9°C | 0% | 0hPa | 5V | 00:00:00 | 00:00:00 | 00:00:00 | |
| DJ2DS-15 | 2026-08-31 12:59:58 | 48.79593 | 3.27748 | 63° | 29km/h | 30665m | 7.1m/s | -42.9°C | 0% | 0hPa | 5.0V | 00:00:00 | 00:00:00 | 00:00:00 | |
| DB0UT-7 | 2026-08-31 12:59:50 | 48.79569 | 3.27675 | 40° | 26km/h | 30616m | 6.8m/s | -42.6°C | 0% | 0hPa | 5.0V | 00:00:00 | 00:00:00 | 00:00:00 | |
| DM0DOS-11 | 2026-08-31 12:59:48 | 48.79549 | 3.27617 | 64° | 24km/h | 30579m | 6.4m/s | -43°C | 0% | 0hPa | 5V | 00:00:00 | 00:00:00 | 00:00:00 | |
| DJ2DS-15 | 2026-08-31 12:59:38 | 48.79518 | 3.27580 | 79° | 24km/h | 30539m | 7.7m/s | -43.0°C | 0% | 0hPa | 5V | 00:00:00 | 00:00:00 | 00:00:00 | |
| DM0DOS-11 | 2026-08-31 12:59:33 | 48.79500 | 3.27512 | 40° | 29km/h | 30495m | 6.9m/s | -42.8°C | 0% | 0hPa | 5V | 00:00:00 | 00:00:00 | 00:00:00 | |
| DM0DOS-11 | 2026-08-31 12:59:23 | 48.79464 | 3.27450 | 73° | 11km/h | 30434m | 5.4m/s | -43°C | 0% | 0hPa | 5V | 00:00:00 | 00:00:00 | 00:00:00 | |
| DB0UT-7 | 2026-08-31 12:59:20 | 48.79463 | 3.27447 | 36° | 27km/h | 30429m | 5.2m/s | -42.9°C | 0% | 0hPa | 5V | 00:00:00 | 00:00:00 | 00:00:00 | |
| DJ2DS-15 | 2026-08-31 12:59:18 | 48.79454 | 3.27440 | 26° | 27km/h | 30416m | 7.7m/s | -43.1°C | 0% | 0hPa | 5V | 00:00:00 | 00:00:00 | 00:00:00 | |
| DM0DOS-11 | 2026-08-31 12:59:13 | 48.79424 | 3.27386 | 96° | 15km/h | 30370m | 4.8m/s | -43.4°C | 0% | 0hPa | 5V | 00:00:00 | 00:00:00 | 00:00:00 | |
| DM0DOS-11 | 2026-08-31 12:59:03 | 48.79369 | 3.27330 | 77° | 24km/h | 30305m | 7.6m/s | -42.8°C | 0% | 0hPa | 5V | 00:00:00 | 00:00:00 | 00:00:00 | |
| DO1YAY-16 | 2026-08-31 12:59:02 | 48.79369 | 3.27330 | 77° | 22km/h | 30305m | 7.6m/s | -43.2°C | 3.4% | -1.0hPa | 5.0V | 00:00:00 | 00:00:00 | 00:00:00 | |
| DJ2DS-15 | 2026-08-31 12:58:58 | 48.79360 | 3.27300 | 47° | 22km/h | 30287m | 6.6m/s | -43.0°C | 0% | 0hPa | 5.0V | 00:00:00 | 00:00:00 | 00:00:00 | |
| DB0UT-7 | 2026-08-31 12:58:50 | 48.79316 | 3.27277 | 73° | 22km/h | 30232m | 6.5m/s | -43.0°C | 0% | 0hPa | 5V | 00:00:00 | 00:00:00 | 00:00:00 | |
| DM0DOS-11 | 2026-08-31 12:58:48 | 48.79306 | 3.27256 | 24° | 24km/h | 30199m | 7.7m/s | -43.2°C | 0% | 0hPa | 5V | 00:00:00 | 00:00:00 | 00:00:00 | |
| DJ2DS-15 | 2026-08-31 12:58:38 | 48.79276 | 3.27234 | 74° | 22km/h | 30154m | 6.8m/s | -43.5°C | 0% | 0hPa | 5V | 00:00:00 | 00:00:00 | 00:00:00 | |
| DM0DOS-11 | 2026-08-31 12:58:28 | 48.79212 | 3.27168 | 23° | 18km/h | 30062m | 6.8m/s | -43.3°C | 0% | 0hPa | 5V | 00:00:00 | 00:00:00 | 00:00:00 | |
| DB0UT-7 | 2026-08-31 12:58:20 | 48.79199 | 3.27172 | 2° | 18km/h | 30037m | 6.7m/s | -43.4°C | 0% | 0hPa | 5.0V | 00:00:00 | 00:00:00 | 00:00:00 | |
| DJ2DS-15 | 2026-08-31 12:58:18 | 48.79191 | 3.27167 | 34° | 20km/h | 30024m | 5.9m/s | -43.5°C | 0% | 0hPa | 5.0V | 00:00:00 | 00:00:00 | 00:00:00 | |
| DJ2DS-15 | 2026-08-31 12:57:58 | 48.79112 | 3.27101 | 35° | 16km/h | 29889m | 7.3m/s | -43.1°C | 0% | 0hPa | 5.0V | 00:00:00 | 00:00:00 | 00:00:00 | |
| DB0UT-7 | 2026-08-31 12:57:50 | 48.79079 | 3.27077 | 25° | 16km/h | 29835m | 7.5m/s | -43.1°C | 0% | 0hPa | 5V | 00:00:00 | 00:00:00 | 00:00:00 | |
| DJ2DS-15 | 2026-08-31 12:57:38 | 48.79038 | 3.27066 | 343° | 15km/h | 29755m | 6.9m/s | -43.1°C | 0% | 0hPa | 5V | 00:00:00 | 00:00:00 | 00:00:00 | |
| DM0DOS-11 | 2026-08-31 12:57:22 | 48.78981 | 3.27043 | 25° | 24km/h | 29625m | 7.6m/s | -42.7°C | 0% | 0hPa | 5V | 00:00:00 | 00:00:00 | 00:00:00 | |
| DB0UT-7 | 2026-08-31 12:57:20 | 48.78985 | 3.27046 | 28° | 15km/h | 29633m | 8.6m/s | -43.2°C | 0% | 0hPa | 5V | 00:00:00 | 00:00:00 | 00:00:00 | |
| DJ2DS-15 | 2026-08-31 12:57:18 | 48.78975 | 3.27038 | 28° | 16km/h | 29619m | 5.5m/s | -42.8°C | 0% | 0hPa | 5V | 00:00:00 | 00:00:00 | 00:00:00 | |
| DM0DOS-11 | 2026-08-31 12:57:11 | 48.78938 | 3.27022 | 42° | 15km/h | 29534m | 6.4m/s | -43.3°C | 0% | 0hPa | 5V | 00:00:00 | 00:00:00 | 00:00:00 | |
| DJ2DS-15 | 2026-08-31 12:57:06 | 48.78934 | 3.27017 | 38° | 22km/h | 29527m | 7.7m/s | -43.2°C | 3.1% | -1.0hPa | 5.0V | 00:00:00 | 00:00:00 | 00:00:00 | |
| DJ2DS-15 | 2026-08-31 12:56:58 | 48.78912 | 3.27012 | 313° | 18km/h | 29488m | 4.7m/s | -43.4°C | 0% | 0hPa | 5.0V | 00:00:00 | 00:00:00 | 00:00:00 | |
| DB0UT-7 | 2026-08-31 12:56:50 | 48.78878 | 3.26975 | 4° | 22km/h | 29434m | 6.8m/s | -43.1°C | 0% | 0hPa | 5.0V | 00:00:00 | 00:00:00 | 00:00:00 | |
| DM0DOS-11 | 2026-08-31 12:56:44 | 48.78831 | 3.26923 | 357° | 24km/h | 29356m | 7.6m/s | -43.2°C | 0% | 0hPa | 5V | 00:00:00 | 00:00:00 | 00:00:00 | |
| DJ2DS-15 | 2026-08-31 12:56:38 | 48.78831 | 3.26923 | 358° | 29km/h | 29356m | 7.6m/s | -43.2°C | 0% | 0hPa | 5V | 00:00:00 | 00:00:00 | 00:00:00 | |
| DM0DOS-11 | 2026-08-31 12:56:22 | 48.78742 | 3.26842 | 355° | 27km/h | 29239m | 5m/s | -43.2°C | 0% | 0hPa | 5V | 00:00:00 | 00:00:00 | 00:00:00 | |
| DB0UT-7 | 2026-08-31 12:56:20 | 48.78749 | 3.26841 | 3° | 29km/h | 29245m | 6.7m/s | -43.2°C | 0% | 0hPa | 5V | 00:00:00 | 00:00:00 | 00:00:00 | |
| DJ2DS-15 | 2026-08-31 12:56:14 | 48.78704 | 3.26816 | 47° | 29km/h | 29209m | 6.0m/s | -43.4°C | 0% | 0hPa | 5V | 00:00:00 | 00:00:00 | 00:00:00 | |
| DM0DOS-11 | 2026-08-31 12:56:07 | 48.78624 | 3.26762 | 36° | 33km/h | 29135m | 7.1m/s | -43.8°C | 0% | 0hPa | 5V | 00:00:00 | 00:00:00 | 00:00:00 | |
| DJ2DS-15 | 2026-08-31 12:55:53 | 48.78565 | 3.26732 | 30° | 33km/h | 29081m | 6.5m/s | -43.9°C | 0% | 0hPa | 5.0V | 00:00:00 | 00:00:00 | 00:00:00 | |
| DB0UT-7 | 2026-08-31 12:55:50 | 48.78538 | 3.26704 | 28° | 31km/h | 29064m | 6.3m/s | -43.9°C | 0% | 0hPa | 5V | 00:00:00 | 00:00:00 | 00:00:00 | |
| DM0DOS-11 | 2026-08-31 12:55:46 | 48.78483 | 3.26686 | 9° | 37km/h | 29017m | 6.7m/s | -44°C | 0% | 0hPa | 5V | 00:00:00 | 00:00:00 | 00:00:00 | |
| DM0DOS-11 | 2026-08-31 12:55:36 | 48.78402 | 3.26685 | 336° | 33km/h | 28961m | 4.4m/s | -44.5°C | 0% | 0hPa | 5V | 00:00:00 | 00:00:00 | 00:00:00 | |
| DJ2DS-15 | 2026-08-31 12:55:33 | 48.78408 | 3.26679 | 331° | 31km/h | 28966m | 5.9m/s | -44.0°C | 0% | 0hPa | 5V | 00:00:00 | 00:00:00 | 00:00:00 | |
| DM0DOS-11 | 2026-08-31 12:55:26 | 48.78319 | 3.26695 | 22° | 22km/h | 28897m | 6.1m/s | -44.5°C | 0% | 0hPa | 5V | 00:00:00 | 00:00:00 | 00:00:00 | |
| DB0UT-7 | 2026-08-31 12:55:20 | 48.78313 | 3.26691 | 25° | 20km/h | 28892m | 5.1m/s | -44.2°C | 0% | 0hPa | 5.0V | 00:00:00 | 00:00:00 | 00:00:00 | |
| DJ2DS-15 | 2026-08-31 12:55:13 | 48.78264 | 3.26693 | 20° | 20km/h | 28852m | 5.9m/s | -44.0°C | 0% | 0hPa | 5V | 00:00:00 | 00:00:00 | 00:00:00 | |
| DM0DOS-11 | 2026-08-31 12:54:56 | 48.78176 | 3.26729 | 314° | 22km/h | 28731m | 5.3m/s | -45.3°C | 0% | 0hPa | 5V | 00:00:00 | 00:00:00 | 00:00:00 | |
| DJ2DS-15 | 2026-08-31 12:54:53 | 48.78181 | 3.26719 | 280° | 15km/h | 28742m | 6.1m/s | -45.0°C | 0% | 0hPa | 5.0V | 00:00:00 | 00:00:00 | 00:00:00 | |
| DB0UT-7 | 2026-08-31 12:54:49 | 48.78167 | 3.26738 | 346° | 15km/h | 28719m | 6.1m/s | -45.2°C | 0% | 0hPa | 5V | 00:00:00 | 00:00:00 | 00:00:00 | |
| DM0DOS-11 | 2026-08-31 12:54:46 | 48.78131 | 3.26741 | 11° | 11km/h | 28674m | 6.5m/s | -45.4°C | 0% | 0hPa | 5V | 00:00:00 | 00:00:00 | 00:00:00 | |
| DM0DOS-11 | 2026-08-31 12:54:36 | 48.78104 | 3.26750 | 63° | 11km/h | 28617m | 4.8m/s | -45.7°C | 0% | 0hPa | 5V | 00:00:00 | 00:00:00 | 00:00:00 | |
| DJ2DS-15 | 2026-08-31 12:54:29 | 48.78100 | 3.26749 | 331° | 16km/h | 28606m | 6.4m/s | -45.7°C | 0% | 0hPa | 5.1V | 00:00:00 | 00:00:00 | 00:00:00 | |
| DM0DOS-11 | 2026-08-31 12:54:21 | 48.78074 | 3.26768 | 311° | 22km/h | 28554m | 6m/s | -45.4°C | 0% | 0hPa | 5.1V | 00:00:00 | 00:00:00 | 00:00:00 | |
| DB0UT-7 | 2026-08-31 12:54:19 | 48.78071 | 3.26775 | 303° | 20km/h | 28548m | 5.6m/s | -45.7°C | 0% | 0hPa | 5.1V | 00:00:00 | 00:00:00 | 00:00:00 | |
| DM0DOS-11 | 2026-08-31 12:54:06 | 48.78021 | 3.26852 | 319° | 20km/h | 28445m | 6.5m/s | -46.2°C | 0% | 0hPa | 5.1V | 00:00:00 | 00:00:00 | 00:00:00 | |
| DJ2DS-15 | 2026-08-31 12:54:04 | 48.78029 | 3.26834 | 299° | 20km/h | 28458m | 4.2m/s | -46.2°C | 0% | 0hPa | 5.1V | 00:00:00 | 00:00:00 | 00:00:00 | |
| DM0DOS-11 | 2026-08-31 12:53:56 | 48.77996 | 3.26904 | 302° | 18km/h | 28380m | 5.8m/s | -45.9°C | 0% | 0hPa | 5.1V | 00:00:00 | 00:00:00 | 00:00:00 | |
| DB0UT-7 | 2026-08-31 12:53:49 | 48.77988 | 3.26916 | 326° | 11km/h | 28367m | 6.2m/s | -46.0°C | 0% | 0hPa | 5.0V | 00:00:00 | 00:00:00 | 00:00:00 | |
| DJ2DS-15 | 2026-08-31 12:53:43 | 48.77969 | 3.26925 | 302° | 9km/h | 28329m | 7.1m/s | -45.8°C | 0% | 0hPa | 5.0V | 00:00:00 | 00:00:00 | 00:00:00 | |
| DM0DOS-11 | 2026-08-31 12:53:42 | 48.77964 | 3.26936 | 310° | 24km/h | 28317m | 5.3m/s | -46.1°C | 0% | 0hPa | 5V | 00:00:00 | 00:00:00 | 00:00:00 | |
| DM0DOS-11 | 2026-08-31 12:53:37 | 48.77935 | 3.26954 | 297° | 7km/h | 28253m | 6.8m/s | -46.2°C | 0% | 0hPa | 5.1V | 00:00:00 | 00:00:00 | 00:00:00 | |
| DM0DOS-11 | 2026-08-31 12:53:25 | 48.77921 | 3.26971 | 281° | 11km/h | 28183m | 7.5m/s | -46.1°C | 0% | 0hPa | 5.1V | 00:00:00 | 00:00:00 | 00:00:00 | |
| DJ2DS-15 | 2026-08-31 12:53:20 | 48.77920 | 3.26971 | 282° | 13km/h | 28183m | 7.4m/s | -46.1°C | 0% | 0hPa | 5.1V | 00:00:00 | 00:00:00 | 00:00:00 | |
| DB0UT-7 | 2026-08-31 12:53:13 | 48.77914 | 3.26996 | 210° | 11km/h | 28132m | 6.8m/s | -46.1°C | 0% | 0hPa | 5.1V | 00:00:00 | 00:00:00 | 00:00:00 | |
| DM0DOS-11 | 2026-08-31 12:53:08 | 48.77904 | 3.27029 | 270° | 18km/h | 28074m | 5.9m/s | -45.8°C | 0% | 0hPa | 5.1V | 00:00:00 | 00:00:00 | 00:00:00 | |
| DJ2DS-15 | 2026-08-31 12:53:01 | 48.77908 | 3.27041 | 183° | 11km/h | 28054m | 6.9m/s | -46.2°C | 0% | 0hPa | 5.1V | 00:00:00 | 00:00:00 | 00:00:00 | |
| DM0DOS-11 | 2026-08-31 12:52:57 | 48.77901 | 3.27066 | 213° | 0km/h | 28004m | 7.4m/s | -46°C | 0% | 0hPa | 5.1V | 00:00:00 | 00:00:00 | 00:00:00 | |
| DB0UT-7 | 2026-08-31 12:52:42 | 48.77894 | 3.27085 | 334° | 11km/h | 27941m | 7.0m/s | -46.4°C | 0% | 0hPa | 5.1V | 00:00:00 | 00:00:00 | 00:00:00 | |
| DM0DOS-11 | 2026-08-31 12:52:40 | 48.77890 | 3.27100 | 248° | 13km/h | 27922m | 6.4m/s | -45.9°C | 0% | 0hPa | 5.1V | 00:00:00 | 00:00:00 | 00:00:00 | |
| DM0DOS-11 | 2026-08-31 12:52:27 | 48.77889 | 3.27130 | 230° | 15km/h | 27825m | 5.4m/s | -45.9°C | 0% | 0hPa | 5.1V | 00:00:00 | 00:00:00 | 00:00:00 | |
| DJ2DS-15 | 2026-08-31 12:52:20 | 48.77890 | 3.27138 | 327° | 15km/h | 27800m | 7.0m/s | -46.2°C | 0% | 0hPa | 5.0V | 00:00:00 | 00:00:00 | 00:00:00 | |
| DB0UT-7 | 2026-08-31 12:52:12 | 48.77878 | 3.27147 | 255° | 18km/h | 27749m | 7.5m/s | -46.1°C | 0% | 0hPa | 5.0V | 00:00:00 | 00:00:00 | 00:00:00 | |
| DM0DOS-11 | 2026-08-31 12:52:04 | 48.77848 | 3.27178 | 278° | 5km/h | 27676m | 6.4m/s | -46.8°C | 0% | 0hPa | 5.1V | 00:00:00 | 00:00:00 | 00:00:00 | |
| DJ2DS-15 | 2026-08-31 12:52:00 | 48.77846 | 3.27180 | 332° | 22km/h | 27671m | 5.3m/s | -46.6°C | 0% | 0hPa | 5.1V | 00:00:00 | 00:00:00 | 00:00:00 | |
| DM0DOS-11 | 2026-08-31 12:51:53 | 48.77795 | 3.27210 | 221° | 7km/h | 27612m | 6.8m/s | -46.3°C | 0% | 0hPa | 5.1V | 00:00:00 | 00:00:00 | 00:00:00 | |
| DM0DOS-11 | 2026-08-31 12:51:47 | 48.77755 | 3.27264 | 277° | 29km/h | 27543m | 6.4m/s | -46.5°C | 0% | 0hPa | 5.1V | 00:00:00 | 00:00:00 | 00:00:00 | |
| DB0UT-7 | 2026-08-31 12:51:41 | 48.77757 | 3.27254 | 302° | 22km/h | 27549m | 7.0m/s | -46.4°C | 0% | 0hPa | 5.0V | 00:00:00 | 00:00:00 | 00:00:00 | |
| DJ2DS-15 | 2026-08-31 12:51:37 | 48.77756 | 3.27291 | 263° | 22km/h | 27524m | 5.8m/s | -46.3°C | 0% | 0hPa | 5.0V | 00:00:00 | 00:00:00 | 00:00:00 | |
| DM0DOS-11 | 2026-08-31 12:51:33 | 48.77737 | 3.27322 | 275° | 11km/h | 27475m | 5.2m/s | -46.4°C | 0% | 0hPa | 5.1V | 00:00:00 | 00:00:00 | 00:00:00 | |
| DM0DOS-11 | 2026-08-31 12:51:21 | 48.77707 | 3.27404 | 278° | 24km/h | 27405m | 6.1m/s | -46°C | 0% | 0hPa | 5.1V | 00:00:00 | 00:00:00 | 00:00:00 | |
| DJ2DS-15 | 2026-08-31 12:51:16 | 48.77708 | 3.27423 | 254° | 24km/h | 27394m | 6.4m/s | -46.3°C | 0% | 0hPa | 5.1V | 00:00:00 | 00:00:00 | 00:00:00 | |
| DB0UT-7 | 2026-08-31 12:51:12 | 48.77699 | 3.27461 | 309° | 26km/h | 27362m | 7.6m/s | -45.6°C | 0% | 0hPa | 5.1V | 00:00:00 | 00:00:00 | 00:00:00 | |
| DM0DOS-11 | 2026-08-31 12:51:04 | 48.77682 | 3.27550 | 309° | 24km/h | 27301m | 6.5m/s | -45.8°C | 0% | 0hPa | 5.1V | 00:00:00 | 00:00:00 | 00:00:00 | |
| DL1ZP-14 | 2026-08-31 12:51:04 | 48.77687 | 3.27532 | 278° | 26km/h | 27313m | 5.5m/s | -46.1°C | 2.8% | -1.0hPa | 5.0V | 00:00:00 | 00:00:00 | 00:00:00 | |
| DJ2DS-15 | 2026-08-31 12:50:55 | 48.77662 | 3.27592 | 270° | 20km/h | 27264m | 5.6m/s | -45.6°C | 0% | 0hPa | 5.1V | 00:00:00 | 00:00:00 | 00:00:00 | |
| DM0DOS-11 | 2026-08-31 12:50:49 | 48.77658 | 3.27641 | 301° | 27km/h | 27221m | 5.7m/s | -45.6°C | 0% | 0hPa | 5.1V | 00:00:00 | 00:00:00 | 00:00:00 | |
| DB0UT-7 | 2026-08-31 12:50:41 | 48.77649 | 3.27677 | 266° | 15km/h | 27182m | 6.6m/s | -45.6°C | 0% | 0hPa | 5.0V | 00:00:00 | 00:00:00 | 00:00:00 | |
| DM0DOS-11 | 2026-08-31 12:50:33 | 48.77646 | 3.27709 | 234° | 22km/h | 27130m | 7.2m/s | -46°C | 0% | 0hPa | 5.1V | 00:00:00 | 00:00:00 | 00:00:00 | |
| DM0DOS-11 | 2026-08-31 12:50:23 | 48.77642 | 3.27748 | 204° | 13km/h | 27073m | 6m/s | -46.5°C | 0% | 0hPa | 5.1V | 00:00:00 | 00:00:00 | 00:00:00 | |
| DJ2DS-15 | 2026-08-31 12:50:13 | 48.77641 | 3.27763 | 9° | 9km/h | 27020m | 5.9m/s | -46.6°C | 0% | 0hPa | 5.1V | 00:00:00 | 00:00:00 | 00:00:00 | |
| DM0DOS-11 | 2026-08-31 12:50:11 | 48.77647 | 3.27763 | 240° | 16km/h | 26992m | 4.9m/s | -46.8°C | 0% | 0hPa | 5.1V | 00:00:00 | 00:00:00 | 00:00:00 | |
| DM0DOS-11 | 2026-08-31 12:50:03 | 48.77651 | 3.27776 | 221° | 7km/h | 26933m | 6.2m/s | -46.8°C | 0% | 0hPa | 5.1V | 00:00:00 | 00:00:00 | 00:00:00 | |
| DL1ZP-14 | 2026-08-31 12:50:01 | 48.77647 | 3.27769 | 230° | 13km/h | 26945m | 5.8m/s | -47.3°C | 3.0% | -1.0hPa | 5.0V | 00:00:00 | 00:00:00 | 00:00:00 | |
| DJ2DS-15 | 2026-08-31 12:49:52 | 48.77653 | 3.27772 | 196° | 11km/h | 26900m | 5.4m/s | -46.9°C | 0% | 0hPa | 5.1V | 00:00:00 | 00:00:00 | 00:00:00 | |
| DM0DOS-11 | 2026-08-31 12:49:43 | 48.77654 | 3.27764 | 164° | 5km/h | 26842m | 6.8m/s | -46.8°C | 0% | 0hPa | 5.1V | 00:00:00 | 00:00:00 | 00:00:00 | |
| DB0UT-7 | 2026-08-31 12:49:32 | 48.77663 | 3.27742 | 71° | 9km/h | 26786m | 4.8m/s | -46.8°C | 0% | 0hPa | 5.1V | 00:00:00 | 00:00:00 | 00:00:00 | |
| DM0DOS-11 | 2026-08-31 12:49:16 | 48.77650 | 3.27710 | 2° | 11km/h | 26668m | 5.9m/s | -47.2°C | 0% | 0hPa | 5.1V | 00:00:00 | 00:00:00 | 00:00:00 | |
| DJ2DS-15 | 2026-08-31 12:49:10 | 48.77645 | 3.27710 | 2° | 9km/h | 26657m | 6.1m/s | -47.0°C | 0% | 0hPa | 5.1V | 00:00:00 | 00:00:00 | 00:00:00 | |
| DM0DOS-11 | 2026-08-31 12:49:03 | 48.77642 | 3.27697 | 305° | 22km/h | 26604m | 5.4m/s | -46.7°C | 0% | 0hPa | 5.1V | 00:00:00 | 00:00:00 | 00:00:00 | |
| DB0UT-7 | 2026-08-31 12:49:02 | 48.77645 | 3.27691 | 312° | 13km/h | 26610m | 7.2m/s | -46.7°C | 0% | 0hPa | 5.0V | 00:00:00 | 00:00:00 | 00:00:00 | |
| DJ2DS-15 | 2026-08-31 12:48:48 | 48.77619 | 3.27697 | 290° | 13km/h | 26532m | 6.0m/s | -47.0°C | 0% | 0hPa | 5.1V | 00:00:00 | 00:00:00 | 00:00:00 | |
| DM0DOS-11 | 2026-08-31 12:48:43 | 48.77605 | 3.27729 | 273° | 20km/h | 26461m | 5.5m/s | -47.1°C | 0% | 0hPa | 5.1V | 00:00:00 | 00:00:00 | 00:00:00 | |
| DM0DOS-11 | 2026-08-31 12:48:31 | 48.77603 | 3.27753 | 315° | 0km/h | 26412m | 4.2m/s | -47.2°C | 0% | 0hPa | 5.1V | 00:00:00 | 00:00:00 | 00:00:00 | |
| DJ2DS-15 | 2026-08-31 12:48:28 | 48.77603 | 3.27755 | 81° | 20km/h | 26416m | 4.3m/s | -47.0°C | 0% | 0hPa | 5.1V | 00:00:00 | 00:00:00 | 00:00:00 | |
| DM0DOS-11 | 2026-08-31 12:48:22 | 48.77600 | 3.27804 | 186° | 13km/h | 26353m | 5.6m/s | -47.2°C | 0% | 0hPa | 5.1V | 00:00:00 | 00:00:00 | 00:00:00 | |
| DJ2DS-15 | 2026-08-31 12:48:07 | 48.77605 | 3.27832 | 114° | 11km/h | 26295m | 5.9m/s | -47.1°C | 0% | 0hPa | 5.1V | 00:00:00 | 00:00:00 | 00:00:00 | |
| DM0DOS-11 | 2026-08-31 12:48:05 | 48.77608 | 3.27851 | 305° | 16km/h | 26249m | 5.4m/s | -47.5°C | 0% | 0hPa | 5.1V | 00:00:00 | 00:00:00 | 00:00:00 | |
| DB0UT-7 | 2026-08-31 12:48:02 | 48.77614 | 3.27836 | 268° | 9km/h | 26266m | 6.3m/s | -47.2°C | 0% | 0hPa | 5.1V | 00:00:00 | 00:00:00 | 00:00:00 | |
| DJ2DS-15 | 2026-08-31 12:47:47 | 48.77611 | 3.27880 | 258° | 9km/h | 26178m | 6.3m/s | -47.5°C | 0% | 0hPa | 5.1V | 00:00:00 | 00:00:00 | 00:00:00 | |
| DB0UT-7 | 2026-08-31 12:47:32 | 48.77624 | 3.27874 | 122° | 9km/h | 26090m | 5.6m/s | -47.6°C | 0% | 0hPa | 5.1V | 00:00:00 | 00:00:00 | 00:00:00 | |
| DJ2DS-15 | 2026-08-31 12:47:27 | 48.77627 | 3.27868 | 287° | 9km/h | 26062m | 4.9m/s | -47.6°C | 0% | 0hPa | 5.1V | 00:00:00 | 00:00:00 | 00:00:00 | |
| DL1ZP-14 | 2026-08-31 12:47:26 | 48.77624 | 3.27874 | 354° | 4km/h | 26050m | 6.1m/s | -48.1°C | 2.6% | -1.0hPa | 5.1V | 00:00:00 | 00:00:00 | 00:00:00 | |
| DB0UT-7 | 2026-08-31 12:47:02 | 48.77596 | 3.27862 | 347° | 7km/h | 25919m | 5.0m/s | -47.7°C | 0% | 0hPa | 5.1V | 00:00:00 | 00:00:00 | 00:00:00 | |
| DL1ZP-14 | 2026-08-31 12:46:55 | 48.77589 | 3.27863 | 1° | 13km/h | 25873m | 6.4m/s | -48.4°C | 2.5% | -1.0hPa | 5.1V | 00:00:00 | 00:00:00 | 00:00:00 | |
| DM0DOS-11 | 2026-08-31 12:46:32 | 48.77555 | 3.27911 | 327° | 5km/h | 25735m | 6.5m/s | -48.7°C | 0% | 0hPa | 5.1V | 00:00:00 | 00:00:00 | 00:00:00 | |
| DB0UT-7 | 2026-08-31 12:46:29 | 48.77553 | 3.27913 | 325° | 7km/h | 25731m | 5.0m/s | -48.6°C | 0% | 0hPa | 5.1V | 00:00:00 | 00:00:00 | 00:00:00 | |
| DM0DOS-11 | 2026-08-31 12:46:14 | 48.77520 | 3.27920 | 331° | 13km/h | 25646m | 5.3m/s | -49.3°C | 0% | 0hPa | 5.1V | 00:00:00 | 00:00:00 | 00:00:00 | |
| DB0UT-7 | 2026-08-31 12:45:58 | 48.77515 | 3.27909 | 160° | 13km/h | 25558m | 5.8m/s | -49.1°C | 0% | 0hPa | 5.1V | 00:00:00 | 00:00:00 | 00:00:00 | |
| DM0DOS-11 | 2026-08-31 12:45:47 | 48.77515 | 3.27896 | 336° | 5km/h | 25488m | 5.2m/s | -49.2°C | 0% | 0hPa | 5.1V | 00:00:00 | 00:00:00 | 00:00:00 | |
| DB0UT-7 | 2026-08-31 12:45:28 | 48.77457 | 3.27887 | 29° | 16km/h | 25394m | 4.8m/s | -49.5°C | 0% | 0hPa | 5.1V | 00:00:00 | 00:00:00 | 00:00:00 | |
| DM0DOS-11 | 2026-08-31 12:45:24 | 48.77436 | 3.27895 | 351° | 20km/h | 25354m | 4.6m/s | -49.3°C | 0% | 0hPa | 5.1V | 00:00:00 | 00:00:00 | 00:00:00 | |
| DM0DOS-11 | 2026-08-31 12:45:12 | 48.77395 | 3.27927 | 324° | 20km/h | 25293m | 5.7m/s | -49.5°C | 0% | 0hPa | 5.1V | 00:00:00 | 00:00:00 | 00:00:00 | |
| DB0UT-7 | 2026-08-31 12:44:58 | 48.77368 | 3.27980 | 311° | 16km/h | 25228m | 4.9m/s | -49.1°C | 0% | 0hPa | 5.1V | 00:00:00 | 00:00:00 | 00:00:00 | |
| DM0DOS-11 | 2026-08-31 12:44:56 | 48.77353 | 3.28000 | 324° | 11km/h | 25200m | 5.7m/s | -49.2°C | 0% | 0hPa | 5.1V | 00:00:00 | 00:00:00 | 00:00:00 | |
| DL1ZP-14 | 2026-08-31 12:44:51 | 48.77342 | 3.28011 | 326° | 16km/h | 25185m | 5.2m/s | -49.9°C | 2.5% | -1.0hPa | 5.1V | 00:00:00 | 00:00:00 | 00:00:00 | |
| DB0UT-7 | 2026-08-31 12:44:28 | 48.77314 | 3.28122 | 264° | 13km/h | 25068m | 5.2m/s | -49.4°C | 0% | 0hPa | 5.1V | 00:00:00 | 00:00:00 | 00:00:00 | |
| DM0DOS-11 | 2026-08-31 12:44:24 | 48.77311 | 3.28160 | 207° | 13km/h | 25022m | 7.2m/s | -49.6°C | 0% | 0hPa | 5.1V | 00:00:00 | 00:00:00 | 00:00:00 | |
| DL1ZP-14 | 2026-08-31 12:44:20 | 48.77314 | 3.28162 | 195° | 16km/h | 25016m | 5.3m/s | -50.1°C | 2.5% | -1.0hPa | 5.1V | 00:00:00 | 00:00:00 | 00:00:00 | |
| DB0UT-7 | 2026-08-31 12:43:58 | 48.77352 | 3.28249 | 203° | 11km/h | 24897m | 4.7m/s | -49.6°C | 0% | 0hPa | 5.1V | 00:00:00 | 00:00:00 | 00:00:00 | |
| DL1ZP-14 | 2026-08-31 12:43:49 | 48.77370 | 3.28275 | 226° | 16km/h | 24840m | 6.5m/s | -50.2°C | 2.5% | -1.0hPa | 5.1V | 00:00:00 | 00:00:00 | 00:00:00 | |
| DB0UT-7 | 2026-08-31 12:43:12 | 48.77386 | 3.28312 | 209° | 9km/h | 24634m | 6.3m/s | -49.7°C | 0% | 0hPa | 5.1V | 00:00:00 | 00:00:00 | 00:00:00 | |
| DB0UT-7 | 2026-08-31 12:42:41 | 48.77356 | 3.28268 | 9° | 9km/h | 24455m | 6.8m/s | -49.6°C | 0% | 0hPa | 5.1V | 00:00:00 | 00:00:00 | 00:00:00 | |
| DB0UT-7 | 2026-08-31 12:42:11 | 48.77360 | 3.28256 | 104° | 13km/h | 24282m | 6.4m/s | -49.9°C | 0% | 0hPa | 5.1V | 00:00:00 | 00:00:00 | 00:00:00 | |
| DB0UT-7 | 2026-08-31 12:41:40 | 48.77373 | 3.28104 | 69° | 20km/h | 24106m | 6.6m/s | -50.7°C | 0% | 0hPa | 5.1V | 00:00:00 | 00:00:00 | 00:00:00 | |
| DB0UT-7 | 2026-08-31 12:41:10 | 48.77238 | 3.28065 | 350° | 24km/h | 23928m | 6.3m/s | -50.5°C | 0% | 0hPa | 5.1V | 00:00:00 | 00:00:00 | 00:00:00 | |
| DB0UT-7 | 2026-08-31 12:40:40 | 48.77087 | 3.28181 | 295° | 20km/h | 23754m | 6.5m/s | -50.3°C | 0% | 0hPa | 5.2V | 00:00:00 | 00:00:00 | 00:00:00 | |
| DM0DOS-11 | 2026-08-31 12:40:27 | 48.77040 | 3.28252 | 0° | 9km/h | 23658m | 6.8m/s | -50.4°C | 0% | 0hPa | 5.2V | 00:00:00 | 00:00:00 | 00:00:00 | |
| DL1ZP-14 | 2026-08-31 12:40:11 | 48.77015 | 3.28281 | 309° | 0km/h | 23582m | 4.5m/s | -50.7°C | 2.1% | -1.0hPa | 5.1V | 00:00:00 | 00:00:00 | 00:00:00 | |
| DB0UT-7 | 2026-08-31 12:39:58 | 48.77008 | 3.28296 | 337° | 15km/h | 23524m | 4.8m/s | -50.1°C | 0% | 0hPa | 5.2V | 00:00:00 | 00:00:00 | 00:00:00 | |
| DM0DOS-11 | 2026-08-31 12:39:55 | 48.77017 | 3.28314 | 256° | 7km/h | 23493m | 3.8m/s | -50.3°C | 0% | 0hPa | 5.2V | 00:00:00 | 00:00:00 | 00:00:00 | |
| DB0UT-7 | 2026-08-31 12:39:27 | 48.76957 | 3.28264 | 37° | 24km/h | 23361m | 5.9m/s | -50.7°C | 0% | 0hPa | 5.1V | 00:00:00 | 00:00:00 | 00:00:00 | |
| DL1ZP-14 | 2026-08-31 12:39:09 | 48.76845 | 3.28278 | 326° | 31km/h | 23260m | 5.1m/s | -52.2°C | 2.3% | -1.0hPa | 5.1V | 00:00:00 | 00:00:00 | 00:00:00 | |
| DB0UT-7 | 2026-08-31 12:38:57 | 48.76787 | 3.28316 | 322° | 22km/h | 23209m | 4.9m/s | -51.6°C | 0% | 0hPa | 5.2V | 00:00:00 | 00:00:00 | 00:00:00 | |
| DM0DOS-11 | 2026-08-31 12:38:45 | 48.76720 | 3.28361 | 351° | 18km/h | 23124m | 4.7m/s | -51.7°C | 0% | 0hPa | 5.2V | 00:00:00 | 00:00:00 | 00:00:00 | |
| DL1ZP-14 | 2026-08-31 12:38:38 | 48.76695 | 3.28370 | 333° | 7km/h | 23097m | 6.1m/s | -52.5°C | 2.4% | -1.0hPa | 5.1V | 00:00:00 | 00:00:00 | 00:00:00 | |
| DB0UT-7 | 2026-08-31 12:38:11 | 48.76587 | 3.28411 | 338° | 20km/h | 22965m | 4.3m/s | -51.9°C | 0% | 0hPa | 5.2V | 00:00:00 | 00:00:00 | 00:00:00 | |
| DM0DOS-11 | 2026-08-31 12:38:08 | 48.76571 | 3.28424 | 351° | 9km/h | 22944m | 5.2m/s | -51.9°C | 0% | 0hPa | 5.2V | 00:00:00 | 00:00:00 | 00:00:00 | |
| DL1ZP-14 | 2026-08-31 12:38:07 | 48.76565 | 3.28423 | 4° | 13km/h | 22932m | 5.4m/s | -52.4°C | 2.3% | -1.0hPa | 5.1V | 00:00:00 | 00:00:00 | 00:00:00 | |
| DM0DOS-11 | 2026-08-31 12:37:51 | 48.76476 | 3.28449 | 350° | 26km/h | 22828m | 4.4m/s | -51.6°C | 0% | 0hPa | 5.2V | 00:00:00 | 00:00:00 | 00:00:00 | |
| DM0DOS-11 | 2026-08-31 12:37:39 | 48.76429 | 3.28488 | 302° | 13km/h | 22764m | 4.8m/s | -51.3°C | 0% | 0hPa | 5.2V | 00:00:00 | 00:00:00 | 00:00:00 | |
| DB0UT-7 | 2026-08-31 12:37:38 | 48.76446 | 3.28468 | 343° | 15km/h | 22785m | 5.0m/s | -51.6°C | 0% | 0hPa | 5.1V | 00:00:00 | 00:00:00 | 00:00:00 | |
| DL1ZP-14 | 2026-08-31 12:37:36 | 48.76428 | 3.28487 | 302° | 13km/h | 22764m | 4.8m/s | -51.9°C | 2.3% | -1.0hPa | 5.1V | 00:00:00 | 00:00:00 | 00:00:00 | |
| DB0UT-7 | 2026-08-31 12:37:08 | 48.76381 | 3.28577 | 289° | 5km/h | 22623m | 4.8m/s | -51.3°C | 0% | 0hPa | 5.1V | 00:00:00 | 00:00:00 | 00:00:00 | |
| DL1ZP-14 | 2026-08-31 12:37:05 | 48.76370 | 3.28600 | 312° | 11km/h | 22577m | 6.2m/s | -51.9°C | 2.4% | -1.0hPa | 5.1V | 00:00:00 | 00:00:00 | 00:00:00 | |
| DB0UT-7 | 2026-08-31 12:36:38 | 48.76339 | 3.28592 | 54° | 9km/h | 22457m | 6.4m/s | -51.2°C | 0% | 0hPa | 5.2V | 00:00:00 | 00:00:00 | 00:00:00 | |
| DM0DOS-11 | 2026-08-31 12:36:36 | 48.76329 | 3.28579 | 319° | 7km/h | 22420m | 6.4m/s | -51.3°C | 0% | 0hPa | 5.2V | 00:00:00 | 00:00:00 | 00:00:00 | |
| DL1ZP-14 | 2026-08-31 12:36:34 | 48.76328 | 3.28584 | 228° | 4km/h | 22410m | 4.1m/s | -51.9°C | 2.4% | -1.0hPa | 5.2V | 00:00:00 | 00:00:00 | 00:00:00 | |
| DB0UT-7 | 2026-08-31 12:36:06 | 48.76324 | 3.28500 | 66° | 15km/h | 22284m | 4.7m/s | -51.0°C | 0% | 0hPa | 5.2V | 00:00:00 | 00:00:00 | 00:00:00 | |
| DB0UT-7 | 2026-08-31 12:35:37 | 48.76329 | 3.28324 | 96° | 18km/h | 22118m | 6.0m/s | -50.6°C | 0% | 0hPa | 5.2V | 00:00:00 | 00:00:00 | 00:00:00 | |
| DB0UT-7 | 2026-08-31 12:35:06 | 48.76290 | 3.28150 | 48° | 20km/h | 21953m | 5.8m/s | -51.1°C | 0% | 0hPa | 5.2V | 00:00:00 | 00:00:00 | 00:00:00 | |
| DM0DOS-11 | 2026-08-31 12:34:51 | 48.76216 | 3.28096 | 28° | 16km/h | 21851m | 4.7m/s | -51.5°C | 0% | 0hPa | 5.2V | 00:00:00 | 00:00:00 | 00:00:00 | |
| DB0UT-7 | 2026-08-31 12:34:25 | 48.76114 | 3.28108 | 334° | 16km/h | 21725m | 4.9m/s | -50.9°C | 0% | 0hPa | 5.2V | 00:00:00 | 00:00:00 | 00:00:00 | |
| DB0UT-7 | 2026-08-31 12:33:55 | 48.76024 | 3.28208 | 326° | 16km/h | 21566m | 5.8m/s | -50.7°C | 0% | 0hPa | 5.2V | 00:00:00 | 00:00:00 | 00:00:00 | |
| DB0UT-7 | 2026-08-31 12:33:25 | 48.75894 | 3.28255 | 357° | 16km/h | 21413m | 3.9m/s | -51.7°C | 0% | 0hPa | 5.2V | 00:00:00 | 00:00:00 | 00:00:00 | |
| DB0UT-7 | 2026-08-31 12:32:53 | 48.75765 | 3.28345 | 31° | 11km/h | 21250m | 4.3m/s | -51.1°C | 0% | 0hPa | 5.2V | 00:00:00 | 00:00:00 | 00:00:00 | |
| DB0UT-7 | 2026-08-31 12:32:23 | 48.75694 | 3.28296 | 43° | 11km/h | 21090m | 5.4m/s | -51.8°C | 0% | 0hPa | 5.2V | 00:00:00 | 00:00:00 | 00:00:00 | |
| DB0UT-7 | 2026-08-31 12:31:53 | 48.75654 | 3.28216 | 57° | 16km/h | 20936m | 4.7m/s | -52.4°C | 0% | 0hPa | 5.2V | 00:00:00 | 00:00:00 | 00:00:00 | |
| DM0DOS-11 | 2026-08-31 12:31:49 | 48.75648 | 3.28195 | 50° | 15km/h | 20895m | 5.6m/s | -52.7°C | 0% | 0hPa | 5.2V | 00:00:00 | 00:00:00 | 00:00:00 | |
| DM0DOS-11 | 2026-08-31 12:31:39 | 48.75613 | 3.28158 | 9° | 18km/h | 20834m | 4.5m/s | -52.7°C | 0% | 0hPa | 5.2V | 00:00:00 | 00:00:00 | 00:00:00 | |
| DM0DOS-11 | 2026-08-31 12:31:28 | 48.75581 | 3.28146 | 15° | 18km/h | 20781m | 5.6m/s | -53°C | 0% | 0hPa | 5.2V | 00:00:00 | 00:00:00 | 00:00:00 | |
| DB0UT-7 | 2026-08-31 12:31:22 | 48.75576 | 3.28144 | 3° | 11km/h | 20775m | 5.9m/s | -53.0°C | 0% | 0hPa | 5.2V | 00:00:00 | 00:00:00 | 00:00:00 | |
| DM0DOS-11 | 2026-08-31 12:31:13 | 48.75542 | 3.28151 | 8° | 15km/h | 20721m | 4.5m/s | -52.6°C | 0% | 0hPa | 5.2V | 00:00:00 | 00:00:00 | 00:00:00 | |
| DM0DOS-11 | 2026-08-31 12:30:58 | 48.75511 | 3.28148 | 195° | 7km/h | 20638m | 4.1m/s | -52.6°C | 0% | 0hPa | 5.2V | 00:00:00 | 00:00:00 | 00:00:00 | |
| DB0UT-7 | 2026-08-31 12:30:52 | 48.75515 | 3.28137 | 59° | 20km/h | 20619m | 3.4m/s | -52.5°C | 0% | 0hPa | 5.2V | 00:00:00 | 00:00:00 | 00:00:00 | |
| DM0DOS-11 | 2026-08-31 12:30:51 | 48.75512 | 3.28162 | 193° | 18km/h | 20588m | 6.3m/s | -52.5°C | 0% | 0hPa | 5.2V | 00:00:00 | 00:00:00 | 00:00:00 | |
| DB0UT-7 | 2026-08-31 12:30:22 | 48.75557 | 3.28142 | 136° | 18km/h | 20465m | 4.1m/s | -52.2°C | 0% | 0hPa | 5.2V | 00:00:00 | 00:00:00 | 00:00:00 | |
| DM0DOS-11 | 2026-08-31 12:30:06 | 48.75566 | 3.28069 | 77° | 13km/h | 20374m | 5.3m/s | -53°C | 0% | 0hPa | 5.2V | 00:00:00 | 00:00:00 | 00:00:00 | |
| DM0DOS-11 | 2026-08-31 12:29:59 | 48.75553 | 3.27985 | 67° | 20km/h | 20314m | 5.7m/s | -53.1°C | 0% | 0hPa | 5.2V | 00:00:00 | 00:00:00 | 00:00:00 | |
| DB0UT-7 | 2026-08-31 12:29:44 | 48.75534 | 3.27919 | 44° | 15km/h | 20269m | 5.3m/s | -52.8°C | 0% | 0hPa | 5.2V | 00:00:00 | 00:00:00 | 00:00:00 | |
| DM0DOS-11 | 2026-08-31 12:29:43 | 48.75525 | 3.27900 | 76° | 22km/h | 20253m | 5.9m/s | -52.7°C | 0% | 0hPa | 5.2V | 00:00:00 | 00:00:00 | 00:00:00 | |
| DM0DOS-11 | 2026-08-31 12:29:33 | 48.75506 | 3.27842 | 44° | 24km/h | 20203m | 5.1m/s | -52.7°C | 0% | 0hPa | 5.2V | 00:00:00 | 00:00:00 | 00:00:00 | |
| DM0DOS-11 | 2026-08-31 12:29:23 | 48.75491 | 3.27772 | 80° | 20km/h | 20139m | 5.2m/s | -53°C | 0% | 0hPa | 5.3V | 00:00:00 | 00:00:00 | 00:00:00 | |
| DB0UT-7 | 2026-08-31 12:29:12 | 48.75491 | 3.27733 | 74° | 26km/h | 20109m | 4.8m/s | -53.3°C | 0% | 0hPa | 5.2V | 00:00:00 | 00:00:00 | 00:00:00 | |
| DM0DOS-11 | 2026-08-31 12:29:08 | 48.75489 | 3.27689 | 80° | 24km/h | 20080m | 5.6m/s | -53.6°C | 0% | 0hPa | 5.2V | 00:00:00 | 00:00:00 | 00:00:00 | |
| DM0DOS-11 | 2026-08-31 12:28:51 | 48.75456 | 3.27486 | 64° | 24km/h | 19981m | 5.7m/s | -53.5°C | 0% | 0hPa | 5.3V | 00:00:00 | 00:00:00 | 00:00:00 | |
| DB0UT-7 | 2026-08-31 12:28:43 | 48.75446 | 3.27454 | 65° | 26km/h | 19961m | 5.2m/s | -53.4°C | 0% | 0hPa | 5.3V | 00:00:00 | 00:00:00 | 00:00:00 | |
| DM0DOS-11 | 2026-08-31 12:28:39 | 48.75418 | 3.27371 | 55° | 33km/h | 19922m | 4.5m/s | -53.5°C | 0% | 0hPa | 5.3V | 00:00:00 | 00:00:00 | 00:00:00 | |
| DM0DOS-11 | 2026-08-31 12:28:27 | 48.75373 | 3.27249 | 51° | 29km/h | 19860m | 5.3m/s | -53.4°C | 0% | 0hPa | 5.3V | 00:00:00 | 00:00:00 | 00:00:00 | |
| DM0DOS-11 | 2026-08-31 12:28:07 | 48.75314 | 3.27099 | 58° | 29km/h | 19779m | 5.7m/s | -52.8°C | 0% | 0hPa | 5.3V | 00:00:00 | 00:00:00 | 00:00:00 | |
| DM0DOS-11 | 2026-08-31 12:27:37 | 48.75203 | 3.26835 | 58° | 15km/h | 19605m | 5.9m/s | -52.4°C | 0% | 0hPa | 5.3V | 00:00:00 | 00:00:00 | 00:00:00 | |
| DB0UT-7 | 2026-08-31 12:27:35 | 48.75213 | 3.26859 | 70° | 15km/h | 19626m | 4.3m/s | -52.3°C | 0% | 0hPa | 5.2V | 00:00:00 | 00:00:00 | 00:00:00 | |
| DM0DOS-11 | 2026-08-31 12:27:21 | 48.75187 | 3.26776 | 127° | 9km/h | 19536m | 4.2m/s | -51.7°C | 0% | 0hPa | 5.3V | 00:00:00 | 00:00:00 | 00:00:00 | |
| DM0DOS-11 | 2026-08-31 12:27:11 | 48.75185 | 3.26710 | 109° | 11km/h | 19476m | 5.1m/s | -51.2°C | 0% | 0hPa | 5.3V | 00:00:00 | 00:00:00 | 00:00:00 | |
| DB0UT-7 | 2026-08-31 12:27:05 | 48.75185 | 3.26710 | 110° | 20km/h | 19476m | 5.0m/s | -51.2°C | 0% | 0hPa | 5.3V | 00:00:00 | 00:00:00 | 00:00:00 | |
| DM0DOS-11 | 2026-08-31 12:27:00 | 48.75189 | 3.26652 | 48° | 18km/h | 19432m | 4.3m/s | -51.3°C | 0% | 0hPa | 5.3V | 00:00:00 | 00:00:00 | 00:00:00 | |
| DM0DOS-11 | 2026-08-31 12:26:35 | 48.75193 | 3.26434 | 84° | 24km/h | 19314m | 4.5m/s | -51.6°C | 0% | 0hPa | 5.3V | 00:00:00 | 00:00:00 | 00:00:00 | |
| DB0UT-7 | 2026-08-31 12:26:35 | 48.75198 | 3.26474 | 62° | 20km/h | 19333m | 3.9m/s | -51.7°C | 0% | 0hPa | 5.3V | 00:00:00 | 00:00:00 | 00:00:00 | |
| DM0DOS-11 | 2026-08-31 12:26:25 | 48.75187 | 3.26342 | 105° | 16km/h | 19258m | 4.2m/s | -51.5°C | 0% | 0hPa | 5.3V | 00:00:00 | 00:00:00 | 00:00:00 | |
| DM0DOS-11 | 2026-08-31 12:26:12 | 48.75187 | 3.26275 | 98° | 27km/h | 19210m | 5m/s | -51.7°C | 0% | 0hPa | 5.3V | 00:00:00 | 00:00:00 | 00:00:00 | |
| DB0UT-7 | 2026-08-31 12:26:02 | 48.75188 | 3.26217 | 83° | 31km/h | 19176m | 4.3m/s | -51.7°C | 0% | 0hPa | 5.2V | 00:00:00 | 00:00:00 | 00:00:00 | |
| DM0DOS-11 | 2026-08-31 12:26:01 | 48.75187 | 3.26154 | 97° | 26km/h | 19147m | 3.9m/s | -51.6°C | 0% | 0hPa | 5.3V | 00:00:00 | 00:00:00 | 00:00:00 | |
| DM0DOS-11 | 2026-08-31 12:25:51 | 48.75175 | 3.26043 | 66° | 29km/h | 19100m | 4.5m/s | -51.5°C | 0% | 0hPa | 5.3V | 00:00:00 | 00:00:00 | 00:00:00 | |
| DM0DOS-11 | 2026-08-31 12:25:40 | 48.75163 | 3.25908 | 68° | 31km/h | 19047m | 5.4m/s | -51.9°C | 0% | 0hPa | 5.3V | 00:00:00 | 00:00:00 | 00:00:00 | |
| DB0UT-7 | 2026-08-31 12:25:32 | 48.75153 | 3.25873 | 73° | 37km/h | 19033m | 5.0m/s | -51.9°C | 0% | 0hPa | 5.3V | 00:00:00 | 00:00:00 | 00:00:00 | |
| DM0DOS-11 | 2026-08-31 12:25:25 | 48.75113 | 3.25740 | 58° | 38km/h | 18979m | 5.3m/s | -51.9°C | 0% | 0hPa | 5.3V | 00:00:00 | 00:00:00 | 00:00:00 | |
| DB0UT-7 | 2026-08-31 12:25:02 | 48.75006 | 3.25506 | 61° | 37km/h | 18885m | 4.4m/s | -51.6°C | 0% | 0hPa | 5.3V | 00:00:00 | 00:00:00 | 00:00:00 | |
| DB0UT-7 | 2026-08-31 12:24:32 | 48.74834 | 3.25176 | 48° | 31km/h | 18738m | 5.8m/s | -51.3°C | 0% | 0hPa | 5.3V | 00:00:00 | 00:00:00 | 00:00:00 | |
| DM0DOS-11 | 2026-08-31 12:24:25 | 48.74770 | 3.25055 | 50° | 33km/h | 18678m | 5.1m/s | -50.8°C | 0% | 0hPa | 5.3V | 00:00:00 | 00:00:00 | 00:00:00 | |
| DB0UT-7 | 2026-08-31 12:24:02 | 48.74695 | 3.24890 | 73° | 29km/h | 18592m | 4.6m/s | -50.6°C | 0% | 0hPa | 5.3V | 00:00:00 | 00:00:00 | 00:00:00 | |
| DM0DOS-11 | 2026-08-31 12:23:59 | 48.74680 | 3.24849 | 53° | 33km/h | 18572m | 4.1m/s | -50.7°C | 0% | 0hPa | 5.3V | 00:00:00 | 00:00:00 | 00:00:00 | |
| DM0DOS-11 | 2026-08-31 12:23:41 | 48.74617 | 3.24635 | 66° | 27km/h | 18477m | 5m/s | -50°C | 0% | 0hPa | 5.3V | 00:00:00 | 00:00:00 | 00:00:00 | |
| DB0UT-7 | 2026-08-31 12:23:32 | 48.74597 | 3.24581 | 64° | 29km/h | 18449m | 4.6m/s | -49.9°C | 0% | 0hPa | 5.3V | 00:00:00 | 00:00:00 | 00:00:00 | |
| DM0DOS-11 | 2026-08-31 12:23:21 | 48.74550 | 3.24468 | 57° | 18km/h | 18389m | 5m/s | -49.8°C | 0% | 0hPa | 5.3V | 00:00:00 | 00:00:00 | 00:00:00 | |
| DM0DOS-11 | 2026-08-31 12:23:05 | 48.74480 | 3.24341 | 67° | 24km/h | 18314m | 4m/s | -50.1°C | 0% | 0hPa | 5.3V | 00:00:00 | 00:00:00 | 00:00:00 | |
| DM0DOS-11 | 2026-08-31 12:22:55 | 48.74434 | 3.24246 | 51° | 35km/h | 18266m | 5.4m/s | -50.3°C | 0% | 0hPa | 5.3V | 00:00:00 | 00:00:00 | 00:00:00 | |
| DM0DOS-11 | 2026-08-31 12:22:45 | 48.74371 | 3.24139 | 42° | 31km/h | 18206m | 4.4m/s | -50.1°C | 0% | 0hPa | 5.3V | 00:00:00 | 00:00:00 | 00:00:00 | |
| DM0DOS-11 | 2026-08-31 12:22:33 | 48.74318 | 3.24073 | 23° | 33km/h | 18158m | 5.2m/s | -50.1°C | 0% | 0hPa | 5.3V | 00:00:00 | 00:00:00 | 00:00:00 | |
| DM0DOS-11 | 2026-08-31 12:22:18 | 48.74239 | 3.24001 | 23° | 31km/h | 18097m | 4.5m/s | -50.1°C | 0% | 0hPa | 5.3V | 00:00:00 | 00:00:00 | 00:00:00 | |
| DB0UT-7 | 2026-08-31 12:22:13 | 48.74215 | 3.23975 | 58° | 24km/h | 18078m | 4.5m/s | -50.0°C | 0% | 0hPa | 5.3V | 00:00:00 | 00:00:00 | 00:00:00 | |
| DB0UT-7 | 2026-08-31 12:21:43 | 48.74121 | 3.23767 | 74° | 31km/h | 17926m | 4.7m/s | -49.6°C | 0% | 0hPa | 5.3V | 00:00:00 | 00:00:00 | 00:00:00 | |
| DB0UT-7 | 2026-08-31 12:21:05 | 48.74060 | 3.23232 | 85° | 49km/h | 17757m | 4.5m/s | -49.4°C | 0% | 0hPa | 5.3V | 00:00:00 | 00:00:00 | 00:00:00 | |
| DM0DOS-11 | 2026-08-31 12:20:59 | 48.74041 | 3.23117 | 75° | 58km/h | 17724m | 5.9m/s | -49.5°C | 0% | 0hPa | 5.3V | 00:00:00 | 00:00:00 | 00:00:00 | |
| DM0DOS-11 | 2026-08-31 12:20:47 | 48.74007 | 3.22831 | 87° | 55km/h | 17660m | 5.4m/s | -50.1°C | 0% | 0hPa | 5.3V | 00:00:00 | 00:00:00 | 00:00:00 | |
| DB0UT-7 | 2026-08-31 12:20:34 | 48.73983 | 3.22687 | 75° | 58km/h | 17626m | 4.5m/s | -50.6°C | 0% | 0hPa | 5.3V | 00:00:00 | 00:00:00 | 00:00:00 | |
| DM0DOS-11 | 2026-08-31 12:20:27 | 48.73953 | 3.22479 | 68° | 60km/h | 17584m | 4.4m/s | -51.5°C | 0% | 0hPa | 5.3V | 00:00:00 | 00:00:00 | 00:00:00 | |
| DM0DOS-11 | 2026-08-31 12:20:07 | 48.73835 | 3.22017 | 67° | 47km/h | 17491m | 3.6m/s | -51.5°C | 0% | 0hPa | 5.3V | 00:00:00 | 00:00:00 | 00:00:00 | |
| DB0UT-7 | 2026-08-31 12:20:04 | 48.73846 | 3.22052 | 62° | 47km/h | 17500m | 4.1m/s | -51.4°C | 0% | 0hPa | 5.3V | 00:00:00 | 00:00:00 | 00:00:00 | |
| DM0DOS-11 | 2026-08-31 12:19:52 | 48.73809 | 3.21816 | 71° | 44km/h | 17443m | 4m/s | -51.6°C | 0% | 0hPa | 5.3V | 00:00:00 | 00:00:00 | 00:00:00 | |
| DM0DOS-11 | 2026-08-31 12:19:44 | 48.73773 | 3.21622 | 66° | 46km/h | 17400m | 5.1m/s | -51.9°C | 0% | 0hPa | 5.3V | 00:00:00 | 00:00:00 | 00:00:00 | |
| DM0DOS-11 | 2026-08-31 12:19:33 | 48.73724 | 3.21411 | 72° | 47km/h | 17349m | 5.2m/s | -52.4°C | 0% | 0hPa | 5.3V | 00:00:00 | 00:00:00 | 00:00:00 | |
| DM0DOS-11 | 2026-08-31 12:19:22 | 48.73679 | 3.21174 | 66° | 53km/h | 17296m | 5.2m/s | -53.3°C | 0% | 0hPa | 5.3V | 00:00:00 | 00:00:00 | 00:00:00 | |
| DM0DOS-11 | 2026-08-31 12:19:01 | 48.73573 | 3.20826 | 65° | 42km/h | 17207m | 4.2m/s | -53.3°C | 0% | 0hPa | 5.3V | 00:00:00 | 00:00:00 | 00:00:00 | |
| DM0DOS-11 | 2026-08-31 12:18:51 | 48.73531 | 3.20650 | 75° | 42km/h | 17158m | 3.4m/s | -53.1°C | 0% | 0hPa | 5.3V | 00:00:00 | 00:00:00 | 00:00:00 | |
| DB0UT-7 | 2026-08-31 12:18:50 | 48.73541 | 3.20697 | 70° | 47km/h | 17170m | 3.7m/s | -53.1°C | 0% | 0hPa | 5.3V | 00:00:00 | 00:00:00 | 00:00:00 | |
| DM0DOS-11 | 2026-08-31 12:18:34 | 48.73467 | 3.20331 | 62° | 49km/h | 17077m | 5m/s | -53.3°C | 0% | 0hPa | 5.3V | 00:00:00 | 00:00:00 | 00:00:00 | |
| DM0DOS-11 | 2026-08-31 12:18:23 | 48.73419 | 3.20145 | 53° | 44km/h | 17024m | 4m/s | -53°C | 0% | 0hPa | 5.3V | 00:00:00 | 00:00:00 | 00:00:00 | |
| DB0UT-7 | 2026-08-31 12:18:20 | 48.73432 | 3.20174 | 64° | 47km/h | 17034m | 5.5m/s | -52.9°C | 0% | 0hPa | 5.3V | 00:00:00 | 00:00:00 | 00:00:00 | |
| DM0DOS-11 | 2026-08-31 12:18:12 | 48.73350 | 3.19965 | 46° | 47km/h | 16968m | 6m/s | -52.8°C | 0% | 0hPa | 5.3V | 00:00:00 | 00:00:00 | 00:00:00 | |
| DB0UT-7 | 2026-08-31 12:17:45 | 48.73171 | 3.19624 | 49° | 46km/h | 16865m | 4.5m/s | -52.2°C | 0% | 0hPa | 5.4V | 00:00:00 | 00:00:00 | 00:00:00 | |
| DB0UT-7 | 2026-08-31 12:17:14 | 48.72932 | 3.19201 | 35° | 44km/h | 16713m | 3.9m/s | -51.7°C | 0% | 0hPa | 5.4V | 00:00:00 | 00:00:00 | 00:00:00 | |
| DM0DOS-11 | 2026-08-31 12:16:59 | 48.72778 | 3.18958 | 35° | 47km/h | 16615m | 5.1m/s | -50.5°C | 0% | 0hPa | 5.4V | 00:00:00 | 00:00:00 | 00:00:00 | |
| DB0UT-7 | 2026-08-31 12:16:44 | 48.72713 | 3.18825 | 55° | 55km/h | 16563m | 5.3m/s | -50.5°C | 0% | 0hPa | 5.3V | 00:00:00 | 00:00:00 | 00:00:00 | |
| DM0DOS-11 | 2026-08-31 12:16:43 | 48.72681 | 3.18753 | 60° | 47km/h | 16531m | 5.7m/s | -50.4°C | 0% | 0hPa | 5.4V | 00:00:00 | 00:00:00 | 00:00:00 | |
| DM0DOS-11 | 2026-08-31 12:16:24 | 48.72598 | 3.18524 | 72° | 37km/h | 16445m | 4.5m/s | -49.9°C | 0% | 0hPa | 5.4V | 00:00:00 | 00:00:00 | 00:00:00 | |
| DM0DOS-11 | 2026-08-31 12:16:12 | 48.72557 | 3.18306 | 70° | 46km/h | 16376m | 4.2m/s | -50°C | 0% | 0hPa | 5.4V | 00:00:00 | 00:00:00 | 00:00:00 | |
| DM0DOS-11 | 2026-08-31 12:16:00 | 48.72515 | 3.18091 | 67° | 51km/h | 16319m | 4.4m/s | -50.2°C | 0% | 0hPa | 5.4V | 00:00:00 | 00:00:00 | 00:00:00 | |
| DM0DOS-11 | 2026-08-31 12:15:44 | 48.72469 | 3.17859 | 69° | 58km/h | 16261m | 5.5m/s | -50.4°C | 0% | 0hPa | 5.4V | 00:00:00 | 00:00:00 | 00:00:00 | |
| DB0UT-7 | 2026-08-31 12:15:30 | 48.72421 | 3.17562 | 77° | 62km/h | 16195m | 4.7m/s | -50.3°C | 0% | 0hPa | 5.4V | 00:00:00 | 00:00:00 | 00:00:00 | |
| DM0DOS-11 | 2026-08-31 12:15:22 | 48.72363 | 3.17254 | 74° | 60km/h | 16132m | 4.2m/s | -50.4°C | 0% | 0hPa | 5.4V | 00:00:00 | 00:00:00 | 00:00:00 | |
| DM0DOS-11 | 2026-08-31 12:15:04 | 48.72296 | 3.16905 | 69° | 58km/h | 16057m | 3.8m/s | -50.8°C | 0% | 0hPa | 5.4V | 00:00:00 | 00:00:00 | 00:00:00 | |
| DB0UT-7 | 2026-08-31 12:15:00 | 48.72290 | 3.16884 | 72° | 71km/h | 16053m | 3.8m/s | -50.9°C | 0% | 0hPa | 5.4V | 00:00:00 | 00:00:00 | 00:00:00 | |
| DM0DOS-11 | 2026-08-31 12:14:54 | 48.72240 | 3.16646 | 70° | 66km/h | 16005m | 3.8m/s | -51.1°C | 0% | 0hPa | 5.4V | 00:00:00 | 00:00:00 | 00:00:00 | |
| DM0DOS-11 | 2026-08-31 12:14:44 | 48.72169 | 3.16367 | 64° | 73km/h | 15955m | 3.4m/s | -51.4°C | 0% | 0hPa | 5.4V | 00:00:00 | 00:00:00 | 00:00:00 | |
| DB0UT-7 | 2026-08-31 12:14:30 | 48.72103 | 3.16132 | 62° | 64km/h | 15916m | 4.2m/s | -51.6°C | 0% | 0hPa | 5.3V | 00:00:00 | 00:00:00 | 00:00:00 | |
| DB0UT-7 | 2026-08-31 12:14:00 | 48.71878 | 3.15442 | 67° | 60km/h | 15784m | 5.2m/s | -50.8°C | 0% | 0hPa | 5.4V | 00:00:00 | 00:00:00 | 00:00:00 | |
| DB0UT-7 | 2026-08-31 12:13:29 | 48.71745 | 3.14779 | 82° | 68km/h | 15649m | 3.7m/s | -51.4°C | 0% | 0hPa | 5.4V | 00:00:00 | 00:00:00 | 00:00:00 | |
| DB0UT-7 | 2026-08-31 12:12:59 | 48.71654 | 3.14009 | 81° | 68km/h | 15525m | 4.4m/s | -51.6°C | 0% | 0hPa | 5.4V | 00:00:00 | 00:00:00 | 00:00:00 | |
| DM0DOS-11 | 2026-08-31 12:12:42 | 48.71589 | 3.13517 | 70° | 71km/h | 15447m | 4.5m/s | -51.5°C | 0% | 0hPa | 5.4V | 00:00:00 | 00:00:00 | 00:00:00 | |
| DM0DOS-11 | 2026-08-31 12:12:32 | 48.71540 | 3.13253 | 71° | 73km/h | 15403m | 5m/s | -51.6°C | 0% | 0hPa | 5.4V | 00:00:00 | 00:00:00 | 00:00:00 | |
| DM0DOS-11 | 2026-08-31 12:12:21 | 48.71498 | 3.12946 | 76° | 68km/h | 15350m | 4.9m/s | -51.6°C | 0% | 0hPa | 5.4V | 00:00:00 | 00:00:00 | 00:00:00 | |
| DB0UT-7 | 2026-08-31 12:12:15 | 48.71491 | 3.12829 | 90° | 69km/h | 15329m | 4.6m/s | -51.6°C | 0% | 0hPa | 5.4V | 00:00:00 | 00:00:00 | 00:00:00 | |
| DM0DOS-11 | 2026-08-31 12:12:06 | 48.71473 | 3.12569 | 94° | 68km/h | 15285m | 4.6m/s | -51.5°C | 0% | 0hPa | 5.4V | 00:00:00 | 00:00:00 | 00:00:00 | |
| DM0DOS-11 | 2026-08-31 12:11:55 | 48.71460 | 3.12228 | 87° | 73km/h | 15228m | 4m/s | -51.3°C | 0% | 0hPa | 5.4V | 00:00:00 | 00:00:00 | 00:00:00 | |
| DM0DOS-11 | 2026-08-31 12:11:45 | 48.71442 | 3.11973 | 86° | 73km/h | 15185m | 5.1m/s | -51.4°C | 0% | 0hPa | 5.4V | 00:00:00 | 00:00:00 | 00:00:00 | |
| DB0UT-7 | 2026-08-31 12:11:44 | 48.71446 | 3.12048 | 82° | 69km/h | 15199m | 4.6m/s | -51.2°C | 0% | 0hPa | 5.4V | 00:00:00 | 00:00:00 | 00:00:00 | |
| DM0DOS-11 | 2026-08-31 12:11:33 | 48.71419 | 3.11704 | 79° | 66km/h | 15142m | 4.5m/s | -51.4°C | 0% | 0hPa | 5.4V | 00:00:00 | 00:00:00 | 00:00:00 | |
| DM0DOS-11 | 2026-08-31 12:11:22 | 48.71381 | 3.11347 | 86° | 71km/h | 15080m | 4m/s | -51.4°C | 0% | 0hPa | 5.4V | 00:00:00 | 00:00:00 | 00:00:00 | |
| DB0UT-7 | 2026-08-31 12:11:14 | 48.71375 | 3.11264 | 80° | 68km/h | 15068m | 3.9m/s | -51.2°C | 0% | 0hPa | 5.4V | 00:00:00 | 00:00:00 | 00:00:00 | |
| DM0DOS-11 | 2026-08-31 12:11:05 | 48.71349 | 3.10970 | 83° | 64km/h | 15015m | 5.1m/s | -51.3°C | 0% | 0hPa | 5.4V | 00:00:00 | 00:00:00 | 00:00:00 | |
| DB0UT-7 | 2026-08-31 12:10:44 | 48.71320 | 3.10525 | 83° | 73km/h | 14936m | 4.0m/s | -51.5°C | 0% | 0hPa | 5.4V | 00:00:00 | 00:00:00 | 00:00:00 | |
| DB0UT-7 | 2026-08-31 12:10:13 | 48.71252 | 3.09676 | 86° | 78km/h | 14795m | 3.6m/s | -52.4°C | 0% | 0hPa | 5.4V | 00:00:00 | 00:00:00 | 00:00:00 | |
| DB0UT-7 | 2026-08-31 12:09:43 | 48.71181 | 3.08786 | 86° | 84km/h | 14661m | 4.3m/s | -52.0°C | 0% | 0hPa | 5.4V | 00:00:00 | 00:00:00 | 00:00:00 | |
| DB0UT-7 | 2026-08-31 12:09:13 | 48.71134 | 3.07810 | 83° | 95km/h | 14525m | 4.5m/s | -51.4°C | 0% | 0hPa | 5.4V | 00:00:00 | 00:00:00 | 00:00:00 | |
| DB0UT-7 | 2026-08-31 12:08:38 | 48.71041 | 3.06559 | 81° | 91km/h | 14360m | 3.6m/s | -51.2°C | 0% | 0hPa | 5.4V | 00:00:00 | 00:00:00 | 00:00:00 | |
| DB0UT-7 | 2026-08-31 12:08:08 | 48.70911 | 3.05534 | 80° | 91km/h | 14227m | 4.4m/s | -51.3°C | 0% | 0hPa | 5.4V | 00:00:00 | 00:00:00 | 00:00:00 | |
| DB0UT-7 | 2026-08-31 12:07:30 | 48.70749 | 3.04238 | 78° | 99km/h | 14055m | 5.1m/s | -50.7°C | 0% | 0hPa | 5.4V | 00:00:00 | 00:00:00 | 00:00:00 | |
| DB0UT-7 | 2026-08-31 12:06:28 | 48.70468 | 3.01961 | 79° | 91km/h | 13782m | 4.8m/s | -50.1°C | 0% | 0hPa | 5.4V | 00:00:00 | 00:00:00 | 00:00:00 | |
| DB0UT-7 | 2026-08-31 12:05:21 | 48.70058 | 2.99645 | 72° | 86km/h | 13490m | 3.2m/s | -48.8°C | 0% | 0hPa | 5.4V | 00:00:00 | 00:00:00 | 00:00:00 | |
| DB0UT-7 | 2026-08-31 12:04:51 | 48.69944 | 2.98681 | 81° | 84km/h | 13358m | 4.4m/s | -49.0°C | 0% | 0hPa | 5.4V | 00:00:00 | 00:00:00 | 00:00:00 | |
| DB0UT-7 | 2026-08-31 12:04:21 | 48.69901 | 2.97706 | 88° | 93km/h | 13228m | 4.9m/s | -48.9°C | 0% | 0hPa | 5.4V | 00:00:00 | 00:00:00 | 00:00:00 | |
| DB0UT-7 | 2026-08-31 12:03:32 | 48.69867 | 2.95945 | 91° | 100km/h | 13017m | 4.4m/s | -48.3°C | 0% | 0hPa | 5.4V | 00:00:00 | 00:00:00 | 00:00:00 | |
| DB0UT-7 | 2026-08-31 12:03:02 | 48.69873 | 2.94804 | 89° | 108km/h | 12890m | 4.8m/s | -48.8°C | 0% | 0hPa | 5.4V | 00:00:00 | 00:00:00 | 00:00:00 | |
| DB0UT-7 | 2026-08-31 12:01:49 | 48.69774 | 2.91781 | 84° | 110km/h | 12579m | 4.4m/s | -49.3°C | 0% | 0hPa | 5.4V | 00:00:00 | 00:00:00 | 00:00:00 | |
| DB0UT-7 | 2026-08-31 12:01:19 | 48.69739 | 2.90518 | 90° | 115km/h | 12449m | 4.3m/s | -49.9°C | 0% | 0hPa | 5.5V | 00:00:00 | 00:00:00 | 00:00:00 | |
| DB0UT-7 | 2026-08-31 12:00:39 | 48.69707 | 2.88910 | 94° | 97km/h | 12273m | 4.9m/s | -49.3°C | 0% | 0hPa | 5.5V | 00:00:00 | 00:00:00 | 00:00:00 | |
| DB0UT-7 | 2026-08-31 12:00:07 | 48.69717 | 2.87727 | 92° | 99km/h | 12125m | 4.0m/s | -48.5°C | 0% | 0hPa | 5.5V | 00:00:00 | 00:00:00 | 00:00:00 | |
| DB0UT-7 | 2026-08-31 11:59:37 | 48.69700 | 2.86590 | 86° | 108km/h | 11994m | 3.5m/s | -48.3°C | 0% | 0hPa | 5.5V | 00:00:00 | 00:00:00 | 00:00:00 | |
| DB0UT-7 | 2026-08-31 11:59:03 | 48.69680 | 2.85229 | 90° | 110km/h | 11847m | 4.9m/s | -48.7°C | 0% | 0hPa | 5.5V | 00:00:00 | 00:00:00 | 00:00:00 | |
| DB0UT-7 | 2026-08-31 11:58:34 | 48.69679 | 2.83991 | 88° | 110km/h | 11720m | 3.3m/s | -48.8°C | 0% | 0hPa | 5.5V | 00:00:00 | 00:00:00 | 00:00:00 | |
| DB0UT-7 | 2026-08-31 11:58:03 | 48.69718 | 2.82746 | 93° | 106km/h | 11588m | 4.2m/s | -49.1°C | 0% | 0hPa | 5.5V | 00:00:00 | 00:00:00 | 00:00:00 | |
| DB0UT-7 | 2026-08-31 11:57:33 | 48.69789 | 2.81548 | 97° | 117km/h | 11459m | 4.7m/s | -48.9°C | 0% | 0hPa | 5.5V | 00:00:00 | 00:00:00 | 00:00:00 | |
| DB0UT-7 | 2026-08-31 11:56:42 | 48.69992 | 2.79423 | 95° | 120km/h | 11232m | 4.0m/s | -50.1°C | 0% | 0hPa | 5.5V | 00:00:00 | 00:00:00 | 00:00:00 | |
| DB0UT-7 | 2026-08-31 11:56:12 | 48.70062 | 2.78047 | 99° | 111km/h | 11087m | 4.8m/s | -49.8°C | 0% | 0hPa | 5.5V | 00:00:00 | 00:00:00 | 00:00:00 | |
| DB0UT-7 | 2026-08-31 11:55:42 | 48.70161 | 2.76760 | 98° | 113km/h | 10940m | 3.7m/s | -49.1°C | 0% | 0hPa | 5.5V | 00:00:00 | 00:00:00 | 00:00:00 | |
| DB0UT-7 | 2026-08-31 11:55:11 | 48.70357 | 2.75422 | 100° | 113km/h | 10790m | 4.8m/s | -49.6°C | 0% | 0hPa | 5.5V | 00:00:00 | 00:00:00 | 00:00:00 | |
| DB0UT-7 | 2026-08-31 11:54:41 | 48.70530 | 2.74162 | 98° | 106km/h | 10650m | 4.1m/s | -49.0°C | 0% | 0hPa | 5.5V | 00:00:00 | 00:00:00 | 00:00:00 | |
| DB0UT-7 | 2026-08-31 11:54:11 | 48.70717 | 2.72969 | 106° | 106km/h | 10520m | 5.2m/s | -48.4°C | 0% | 0hPa | 5.5V | 00:00:00 | 00:00:00 | 00:00:00 | |
| DB0UT-7 | 2026-08-31 11:53:41 | 48.70917 | 2.71775 | 105° | 110km/h | 10378m | 3.0m/s | -47.6°C | 0% | 0hPa | 5.5V | 00:00:00 | 00:00:00 | 00:00:00 | |
| DB0UT-7 | 2026-08-31 11:53:11 | 48.71180 | 2.70597 | 112° | 111km/h | 10249m | 4.9m/s | -47.3°C | 0% | 0hPa | 5.5V | 00:00:00 | 00:00:00 | 00:00:00 | |
| DB0UT-7 | 2026-08-31 11:52:41 | 48.71457 | 2.69377 | 104° | 119km/h | 10119m | 5.3m/s | -46.6°C | 0% | 0hPa | 5.5V | 00:00:00 | 00:00:00 | 00:00:00 | |
| DB0UT-7 | 2026-08-31 11:52:06 | 48.71815 | 2.67886 | 111° | 122km/h | 9957m | 4.0m/s | -45.6°C | 0% | 0hPa | 5.5V | 00:00:00 | 00:00:00 | 00:00:00 | |
| DB0UT-7 | 2026-08-31 11:51:33 | 48.72228 | 2.66474 | 116° | 126km/h | 9826m | 4.1m/s | -44.7°C | 0% | 0hPa | 5.5V | 00:00:00 | 00:00:00 | 00:00:00 | |
| DB0UT-7 | 2026-08-31 11:51:03 | 48.72624 | 2.65152 | 112° | 122km/h | 9705m | 3.8m/s | -44.2°C | 0% | 0hPa | 5.5V | 00:00:00 | 00:00:00 | 00:00:00 | |
| DB0UT-7 | 2026-08-31 11:49:49 | 48.73478 | 2.61911 | 111° | 117km/h | 9390m | 4.0m/s | -42.5°C | 0% | 0hPa | 5.5V | 00:00:00 | 00:00:00 | 00:00:00 | |
| DB0UT-7 | 2026-08-31 11:49:19 | 48.73750 | 2.60641 | 106° | 119km/h | 9260m | 3.5m/s | -41.9°C | 0% | 0hPa | 5.5V | 00:00:00 | 00:00:00 | 00:00:00 | |
| DB0UT-7 | 2026-08-31 11:48:09 | 48.74333 | 2.57683 | 105° | 113km/h | 8934m | 5.2m/s | -40.1°C | 0% | 0hPa | 5.5V | 00:00:00 | 00:00:00 | 00:00:00 | |
| DB0UT-7 | 2026-08-31 11:47:39 | 48.74518 | 2.56426 | 106° | 111km/h | 8801m | 3.6m/s | -39.2°C | 0% | 0hPa | 5.5V | 00:00:00 | 00:00:00 | 00:00:00 | |
| DB0UT-7 | 2026-08-31 11:46:26 | 48.74876 | 2.53397 | 99° | 110km/h | 8495m | 4.0m/s | -36.9°C | 0% | 0hPa | 5.6V | 00:00:00 | 00:00:00 | 00:00:00 | |
| DB0UT-7 | 2026-08-31 11:45:56 | 48.75010 | 2.52156 | 98° | 111km/h | 8374m | 3.8m/s | -35.9°C | 0% | 0hPa | 5.6V | 00:00:00 | 00:00:00 | 00:00:00 | |
| DB0UT-7 | 2026-08-31 11:44:43 | 48.75226 | 2.49118 | 94° | 108km/h | 8042m | 4.3m/s | -33.6°C | 0% | 0hPa | 5.6V | 00:00:00 | 00:00:00 | 00:00:00 | |
| DB0UT-7 | 2026-08-31 11:44:13 | 48.75294 | 2.47897 | 100° | 108km/h | 7914m | 4.5m/s | -32.6°C | 0% | 0hPa | 5.6V | 00:00:00 | 00:00:00 | 00:00:00 | |
| DB0UT-7 | 2026-08-31 11:43:01 | 48.75494 | 2.44974 | 98° | 106km/h | 7588m | 4.5m/s | -30.0°C | 0% | 0hPa | 5.6V | 00:00:00 | 00:00:00 | 00:00:00 | |
| DB0UT-7 | 2026-08-31 11:42:31 | 48.75576 | 2.43756 | 98° | 110km/h | 7462m | 4.9m/s | -28.9°C | 0% | 0hPa | 5.6V | 00:00:00 | 00:00:00 | 00:00:00 | |
| DB0UT-7 | 2026-08-31 11:41:48 | 48.75698 | 2.41995 | 103° | 106km/h | 7228m | 5.2m/s | -27.3°C | 0% | 0hPa | 5.6V | 00:00:00 | 00:00:00 | 00:00:00 | |
| DB0UT-7 | 2026-08-31 11:41:18 | 48.75779 | 2.40758 | 91° | 102km/h | 7097m | 4.8m/s | -26.6°C | 0% | 0hPa | 5.6V | 00:00:00 | 00:00:00 | 00:00:00 | |
| DB0UT-7 | 2026-08-31 11:40:48 | 48.75869 | 2.39593 | 100° | 93km/h | 6973m | 3.8m/s | -25.7°C | 0% | 0hPa | 5.6V | 00:00:00 | 00:00:00 | 00:00:00 | |
| DB0UT-7 | 2026-08-31 11:39:36 | 48.76090 | 2.37036 | 98° | 88km/h | 6692m | 3.7m/s | -24.0°C | 0% | 0hPa | 0V | 00:00:00 | 00:00:00 | 00:00:00 | |
| DB0UT-7 | 2026-08-31 11:39:06 | 48.76166 | 2.36031 | 92° | 77km/h | 6574m | 4.5m/s | -23.7°C | 0% | 0hPa | 0V | 00:00:00 | 00:00:00 | 00:00:00 |